Time,TemperatureF,DewpointF,PressureIn,WindDirection,WindDirectionDegrees,WindSpeedMPH,WindSpeedGustMPH,Humidity,HourlyPrecipIn,Conditions,Clouds,dailyrainin,SolarRadiationWatts/m^2,SoftwareType,DateUTC
2013-07-02 00:00:00,67.4,65.6,29.83,NE,46,0.0,1.0,94,0.00,,---,0.03,0.00,VWS V14.01,2013-07-02 04:00:00,
2013-07-02 00:01:00,67.5,65.7,29.82,NE,46,0.0,4.0,94,0.00,,---,0.03,0.00,VWS V14.01,2013-07-02 04:01:00,
2013-07-02 00:02:00,67.5,65.7,29.82,NE,46,0.0,0.0,94,0.00,,---,0.03,0.00,VWS V14.01,2013-07-02 04:02:00,
2013-07-02 00:05:00,67.4,65.6,29.82,NE,46,1.0,1.0,94,0.00,,---,0.00,0.00,VWS V14.01,2013-07-02 04:05:00,
2013-07-02 00:07:00,67.4,65.6,29.82,NE,46,0.0,0.0,94,0.00,,---,0.00,0.00,VWS V14.01,2013-07-02 04:07:00,
2013-07-02 00:10:00,67.3,65.5,29.83,NE,46,0.0,5.0,94,0.00,,---,0.00,0.00,VWS V14.01,2013-07-02 04:10:00,
2013-07-02 00:12:00,67.4,65.6,29.83,NE,46,0.0,1.0,94,0.00,,---,0.00,0.00,VWS V14.01,2013-07-02 04:12:00,
2013-07-02 00:15:00,67.2,65.4,29.83,NE,46,1.0,4.0,94,0.00,,---,0.00,0.00,VWS V14.01,2013-07-02 04:15:00,
2013-07-02 00:17:00,67.2,65.4,29.83,NE,46,0.0,0.0,94,0.00,,---,0.00,0.00,VWS V14.01,2013-07-02 04:17:00,
2013-07-02 00:20:00,67.1,65.3,29.82,NE,46,0.0,2.0,94,0.00,,---,0.00,0.00,VWS V14.01,2013-07-02 04:20:00,
2013-07-02 00:22:00,67.2,65.4,29.82,NE,46,2.0,2.0,94,0.00,,---,0.00,0.00,VWS V14.01,2013-07-02 04:22:00,
2013-07-02 00:25:00,67.0,65.5,29.83,East,86,0.0,4.0,95,0.00,,---,0.00,0.00,VWS V14.01,2013-07-02 04:25:00,
2013-07-02 00:27:00,67.1,65.3,29.82,NE,46,1.0,2.0,94,0.00,,---,0.00,0.00,VWS V14.01,2013-07-02 04:27:00,
2013-07-02 00:30:00,67.0,65.5,29.83,East,83,2.0,3.0,95,0.00,,---,0.00,0.00,VWS V14.01,2013-07-02 04:30:00,
2013-07-02 00:32:00,67.0,65.5,29.83,East,86,0.0,0.0,95,0.00,,---,0.00,0.00,VWS V14.01,2013-07-02 04:32:00,
2013-07-02 00:35:00,67.0,65.5,29.83,East,83,1.0,2.0,95,0.00,,---,0.00,0.00,VWS V14.01,2013-07-02 04:35:00,
2013-07-02 00:37:00,67.0,65.5,29.83,East,83,0.0,2.0,95,0.00,,---,0.00,0.00,VWS V14.01,2013-07-02 04:37:00,
2013-07-02 00:40:00,67.0,65.5,29.83,East,83,2.0,2.0,95,0.00,,---,0.00,0.00,VWS V14.01,2013-07-02 04:40:00,
2013-07-02 00:42:00,67.0,65.5,29.83,East,84,0.0,2.0,95,0.00,,---,0.00,0.00,VWS V14.01,2013-07-02 04:42:00,
2013-07-02 00:45:00,67.0,65.5,29.83,East,83,3.0,3.0,95,0.00,,---,0.00,0.00,VWS V14.01,2013-07-02 04:45:00,
2013-07-02 00:47:00,67.0,65.5,29.83,East,83,1.0,2.0,95,0.00,,---,0.00,0.00,VWS V14.01,2013-07-02 04:47:00,
2013-07-02 00:50:00,67.0,65.5,29.83,NE,53,0.0,5.0,95,0.00,,---,0.00,0.00,VWS V14.01,2013-07-02 04:50:00,
2013-07-02 00:52:00,67.0,65.5,29.83,East,83,2.0,3.0,95,0.00,,---,0.00,0.00,VWS V14.01,2013-07-02 04:52:00,
2013-07-02 00:55:00,67.0,65.5,29.83,NE,52,0.0,4.0,95,0.00,,---,0.00,0.00,VWS V14.01,2013-07-02 04:55:00,
2013-07-02 00:57:00,67.0,65.5,29.83,NE,54,1.0,3.0,95,0.00,,---,0.00,0.00,VWS V14.01,2013-07-02 04:57:00,
2013-07-02 01:00:00,67.0,65.5,29.83,NE,52,1.0,2.0,95,0.00,,---,0.00,0.00,VWS V14.01,2013-07-02 05:00:00,
2013-07-02 01:02:00,67.0,65.5,29.83,NE,52,0.0,2.0,95,0.00,,---,0.00,0.00,VWS V14.01,2013-07-02 05:02:00,
2013-07-02 01:05:00,67.0,65.5,29.82,NE,52,0.0,1.0,95,0.00,,---,0.00,0.00,VWS V14.01,2013-07-02 05:05:00,
2013-07-02 01:07:00,67.0,65.5,29.82,NE,52,1.0,1.0,95,0.00,,---,0.00,0.00,VWS V14.01,2013-07-02 05:07:00,
2013-07-02 01:10:00,67.0,65.5,29.83,East,83,2.0,4.0,95,0.00,,---,0.00,0.00,VWS V14.01,2013-07-02 05:10:00,
2013-07-02 01:12:00,67.0,65.5,29.82,NE,52,0.0,0.0,95,0.00,,---,0.00,0.00,VWS V14.01,2013-07-02 05:12:00,
2013-07-02 01:15:00,67.0,65.5,29.83,ENE,74,0.0,4.0,95,0.00,,---,0.00,0.00,VWS V14.01,2013-07-02 05:15:00,
2013-07-02 01:17:00,66.9,65.4,29.83,ENE,78,0.0,3.0,95,0.00,,---,0.00,0.00,VWS V14.01,2013-07-02 05:17:00,
2013-07-02 01:20:00,67.0,65.5,29.83,ENE,75,0.0,3.0,95,0.00,,---,0.00,0.00,VWS V14.01,2013-07-02 05:20:00,
2013-07-02 01:22:00,67.0,65.5,29.83,ENE,75,0.0,3.0,95,0.00,,---,0.00,0.00,VWS V14.01,2013-07-02 05:22:00,
2013-07-02 01:25:00,67.0,65.5,29.82,ENE,75,0.0,2.0,95,0.00,,---,0.00,0.00,VWS V14.01,2013-07-02 05:25:00,
2013-07-02 01:28:00,67.0,65.5,29.83,ENE,75,1.0,1.0,95,0.00,,---,0.00,0.00,VWS V14.01,2013-07-02 05:28:00,
2013-07-02 01:30:00,67.0,65.5,29.82,ENE,75,0.0,2.0,95,0.00,,---,0.00,0.00,VWS V14.01,2013-07-02 05:30:00,
2013-07-02 01:33:00,67.0,65.5,29.82,ENE,75,0.0,0.0,95,0.00,,---,0.00,0.00,VWS V14.01,2013-07-02 05:33:00,
2013-07-02 01:35:00,67.0,65.5,29.82,ENE,75,0.0,1.0,95,0.00,,---,0.00,0.00,VWS V14.01,2013-07-02 05:35:00,
2013-07-02 01:38:00,67.0,65.5,29.82,ENE,75,0.0,0.0,95,0.00,,---,0.00,0.00,VWS V14.01,2013-07-02 05:38:00,
2013-07-02 01:40:00,67.0,65.5,29.82,ENE,75,0.0,0.0,95,0.00,,---,0.00,0.00,VWS V14.01,2013-07-02 05:40:00,
2013-07-02 01:43:00,67.0,65.5,29.82,ENE,75,0.0,0.0,95,0.00,,---,0.00,0.00,VWS V14.01,2013-07-02 05:43:00,
2013-07-02 01:45:00,67.0,65.5,29.82,ENE,75,0.0,0.0,95,0.00,,---,0.00,0.00,VWS V14.01,2013-07-02 05:45:00,
2013-07-02 01:48:00,67.0,65.5,29.82,ENE,75,0.0,0.0,95,0.00,,---,0.00,0.00,VWS V14.01,2013-07-02 05:48:00,
2013-07-02 01:50:00,66.9,65.4,29.82,ENE,75,0.0,3.0,95,0.00,,---,0.00,0.00,VWS V14.01,2013-07-02 05:50:00,
2013-07-02 01:53:00,66.9,65.4,29.82,ENE,75,2.0,2.0,95,0.00,,---,0.00,0.00,VWS V14.01,2013-07-02 05:53:00,
2013-07-02 01:55:00,66.8,65.3,29.82,ENE,75,0.0,0.0,95,0.00,,---,0.00,0.00,VWS V14.01,2013-07-02 05:55:00,
2013-07-02 01:58:00,66.8,65.3,29.82,ENE,75,0.0,0.0,95,0.00,,---,0.00,0.00,VWS V14.01,2013-07-02 05:58:00,
2013-07-02 02:00:00,66.7,65.2,29.82,ENE,75,0.0,0.0,95,0.00,,---,0.00,0.00,VWS V14.01,2013-07-02 06:00:00,
2013-07-02 02:03:00,66.8,65.3,29.82,ENE,75,0.0,0.0,95,0.00,,---,0.00,0.00,VWS V14.01,2013-07-02 06:03:00,
2013-07-02 02:05:00,66.6,65.1,29.82,ENE,75,0.0,0.0,95,0.00,,---,0.00,0.00,VWS V14.01,2013-07-02 06:05:00,
2013-07-02 02:08:00,66.7,65.2,29.82,ENE,75,0.0,0.0,95,0.00,,---,0.00,0.00,VWS V14.01,2013-07-02 06:08:00,
2013-07-02 02:10:00,66.6,65.1,29.82,ENE,75,0.0,0.0,95,0.00,,---,0.00,0.00,VWS V14.01,2013-07-02 06:10:00,
2013-07-02 02:13:00,66.6,65.1,29.82,ENE,74,0.0,0.0,95,0.00,,---,0.00,0.00,VWS V14.01,2013-07-02 06:13:00,
2013-07-02 02:15:00,66.5,65.0,29.82,ENE,75,0.0,0.0,95,0.00,,---,0.00,0.00,VWS V14.01,2013-07-02 06:15:00,
2013-07-02 02:18:00,66.5,65.0,29.82,ENE,75,0.0,0.0,95,0.00,,---,0.00,0.00,VWS V14.01,2013-07-02 06:18:00,
2013-07-02 02:20:00,66.4,64.9,29.82,ENE,75,0.0,0.0,95,0.00,,---,0.00,0.00,VWS V14.01,2013-07-02 06:20:00,
2013-07-02 02:23:00,66.4,64.9,29.82,ENE,75,0.0,0.0,95,0.00,,---,0.00,0.00,VWS V14.01,2013-07-02 06:23:00,
2013-07-02 02:25:00,66.3,64.8,29.83,ENE,74,0.0,0.0,95,0.00,,---,0.00,0.00,VWS V14.01,2013-07-02 06:25:00,
2013-07-02 02:28:00,66.3,64.8,29.83,ENE,74,0.0,0.0,95,0.00,,---,0.00,0.00,VWS V14.01,2013-07-02 06:28:00,
2013-07-02 02:30:00,66.2,64.7,29.83,ENE,75,0.0,0.0,95,0.00,,---,0.00,0.00,VWS V14.01,2013-07-02 06:30:00,
2013-07-02 02:33:00,66.2,64.7,29.83,ENE,75,0.0,0.0,95,0.00,,---,0.00,0.00,VWS V14.01,2013-07-02 06:33:00,
2013-07-02 02:35:00,66.1,64.6,29.83,ENE,75,0.0,0.0,95,0.00,,---,0.00,0.00,VWS V14.01,2013-07-02 06:35:00,
2013-07-02 02:38:00,66.1,64.6,29.83,ENE,75,0.0,0.0,95,0.00,,---,0.00,0.00,VWS V14.01,2013-07-02 06:38:00,
2013-07-02 02:40:00,66.0,64.5,29.83,ENE,75,0.0,0.0,95,0.00,,---,0.00,0.00,VWS V14.01,2013-07-02 06:40:00,
2013-07-02 02:43:00,66.0,64.5,29.83,ENE,75,0.0,0.0,95,0.00,,---,0.00,0.00,VWS V14.01,2013-07-02 06:43:00,
2013-07-02 02:45:00,65.8,64.3,29.83,ENE,75,0.0,0.0,95,0.00,,---,0.00,0.00,VWS V14.01,2013-07-02 06:45:00,
2013-07-02 02:48:00,65.9,64.4,29.83,ENE,75,0.0,0.0,95,0.00,,---,0.00,0.00,VWS V14.01,2013-07-02 06:48:00,
2013-07-02 02:50:00,65.8,64.3,29.83,ENE,75,0.0,0.0,95,0.00,,---,0.00,0.00,VWS V14.01,2013-07-02 06:50:00,
2013-07-02 02:53:00,65.8,64.3,29.83,ENE,74,0.0,0.0,95,0.00,,---,0.00,0.00,VWS V14.01,2013-07-02 06:53:00,
2013-07-02 02:55:00,65.8,64.3,29.84,ENE,75,0.0,0.0,95,0.00,,---,0.00,0.00,VWS V14.01,2013-07-02 06:55:00,
2013-07-02 02:58:00,65.8,64.3,29.83,ENE,75,0.0,0.0,95,0.00,,---,0.00,0.00,VWS V14.01,2013-07-02 06:58:00,
2013-07-02 03:00:00,65.8,64.6,29.83,ENE,75,0.0,1.0,96,0.00,,---,0.00,0.00,VWS V14.01,2013-07-02 07:00:00,
2013-07-02 03:03:00,65.8,64.6,29.84,ENE,75,0.0,1.0,96,0.00,,---,0.00,0.00,VWS V14.01,2013-07-02 07:03:00,
2013-07-02 03:05:00,65.9,64.7,29.83,ENE,75,0.0,1.0,96,0.00,,---,0.00,0.00,VWS V14.01,2013-07-02 07:05:00,
2013-07-02 03:08:00,65.9,64.7,29.83,ENE,75,0.0,1.0,96,0.00,,---,0.00,0.00,VWS V14.01,2013-07-02 07:08:00,
2013-07-02 03:10:00,66.0,64.8,29.83,ENE,75,0.0,0.0,96,0.00,,---,0.00,0.00,VWS V14.01,2013-07-02 07:10:00,
2013-07-02 03:13:00,66.0,64.8,29.83,ENE,75,0.0,0.0,96,0.00,,---,0.00,0.00,VWS V14.01,2013-07-02 07:13:00,
2013-07-02 03:15:00,66.0,64.8,29.83,ENE,75,0.0,0.0,96,0.00,,---,0.00,0.00,VWS V14.01,2013-07-02 07:15:00,
2013-07-02 03:18:00,66.0,64.8,29.83,ENE,75,0.0,0.0,96,0.00,,---,0.00,0.00,VWS V14.01,2013-07-02 07:18:00,
2013-07-02 03:20:00,66.0,64.8,29.83,ENE,75,0.0,0.0,96,0.00,,---,0.00,0.00,VWS V14.01,2013-07-02 07:20:00,
2013-07-02 03:23:00,66.0,64.8,29.83,ENE,75,0.0,0.0,96,0.00,,---,0.00,0.00,VWS V14.01,2013-07-02 07:23:00,
2013-07-02 03:25:00,66.0,64.8,29.83,ENE,75,0.0,0.0,96,0.00,,---,0.00,0.00,VWS V14.01,2013-07-02 07:25:00,
2013-07-02 03:28:00,66.0,64.8,29.84,ENE,75,0.0,0.0,96,0.00,,---,0.00,0.00,VWS V14.01,2013-07-02 07:28:00,
2013-07-02 03:30:00,66.0,64.8,29.83,ENE,75,0.0,0.0,96,0.00,,---,0.00,0.00,VWS V14.01,2013-07-02 07:30:00,
2013-07-02 03:33:00,66.0,64.8,29.83,ENE,75,0.0,0.0,96,0.00,,---,0.00,0.00,VWS V14.01,2013-07-02 07:33:00,
2013-07-02 03:35:00,66.0,64.8,29.83,ENE,75,0.0,0.0,96,0.00,,---,0.00,0.00,VWS V14.01,2013-07-02 07:35:00,
2013-07-02 03:38:00,66.0,64.8,29.83,ENE,74,0.0,0.0,96,0.00,,---,0.00,0.00,VWS V14.01,2013-07-02 07:38:00,
2013-07-02 03:40:00,66.0,64.8,29.83,ENE,75,0.0,0.0,96,0.00,,---,0.00,0.00,VWS V14.01,2013-07-02 07:40:00,
2013-07-02 03:43:00,66.0,64.8,29.83,ENE,75,0.0,0.0,96,0.00,,---,0.00,0.00,VWS V14.01,2013-07-02 07:43:00,
2013-07-02 03:45:00,65.9,64.7,29.83,ENE,74,0.0,0.0,96,0.00,,---,0.00,0.00,VWS V14.01,2013-07-02 07:45:00,
2013-07-02 03:48:00,65.9,64.7,29.83,ENE,75,0.0,0.0,96,0.00,,---,0.00,0.00,VWS V14.01,2013-07-02 07:48:00,
2013-07-02 03:50:00,65.9,64.7,29.83,ENE,75,0.0,1.0,96,0.00,,---,0.00,0.00,VWS V14.01,2013-07-02 07:50:00,
2013-07-02 03:53:00,65.9,64.7,29.83,ENE,75,0.0,0.0,96,0.00,,---,0.00,0.00,VWS V14.01,2013-07-02 07:53:00,
2013-07-02 03:55:00,65.8,64.6,29.83,ENE,75,0.0,1.0,96,0.00,,---,0.00,0.00,VWS V14.01,2013-07-02 07:55:00,
2013-07-02 03:58:00,65.9,64.7,29.83,ENE,75,0.0,1.0,96,0.00,,---,0.00,0.00,VWS V14.01,2013-07-02 07:58:00,
2013-07-02 04:00:00,65.7,64.5,29.83,ENE,75,0.0,0.0,96,0.00,,---,0.00,0.00,VWS V14.01,2013-07-02 08:00:00,
2013-07-02 04:03:00,65.8,64.6,29.83,ENE,75,0.0,0.0,96,0.00,,---,0.00,0.00,VWS V14.01,2013-07-02 08:03:00,
2013-07-02 04:05:00,65.7,64.5,29.83,ENE,75,0.0,2.0,96,0.00,,---,0.00,0.00,VWS V14.01,2013-07-02 08:05:00,
2013-07-02 04:08:00,65.7,64.5,29.83,ENE,75,0.0,1.0,96,0.00,,---,0.00,0.00,VWS V14.01,2013-07-02 08:08:00,
2013-07-02 04:10:00,65.8,64.6,29.83,ENE,75,0.0,2.0,96,0.00,,---,0.00,0.00,VWS V14.01,2013-07-02 08:10:00,
2013-07-02 04:13:00,65.7,64.5,29.83,ENE,75,0.0,2.0,96,0.00,,---,0.00,0.00,VWS V14.01,2013-07-02 08:13:00,
2013-07-02 04:15:00,65.8,64.9,29.83,ENE,75,0.0,2.0,97,0.00,,---,0.00,0.00,VWS V14.01,2013-07-02 08:15:00,
2013-07-02 04:18:00,65.8,64.9,29.83,ENE,75,0.0,2.0,97,0.00,,---,0.00,0.00,VWS V14.01,2013-07-02 08:18:00,
2013-07-02 04:20:00,65.7,64.8,29.83,ENE,75,0.0,1.0,97,0.00,,---,0.00,0.00,VWS V14.01,2013-07-02 08:20:00,
2013-07-02 04:23:00,65.8,64.9,29.83,ENE,75,0.0,1.0,97,0.00,,---,0.00,0.00,VWS V14.01,2013-07-02 08:23:00,
2013-07-02 04:25:00,65.7,64.8,29.83,ENE,75,0.0,0.0,97,0.00,,---,0.00,0.00,VWS V14.01,2013-07-02 08:25:00,
2013-07-02 04:28:00,65.7,64.8,29.83,ENE,75,0.0,0.0,97,0.00,,---,0.00,0.00,VWS V14.01,2013-07-02 08:28:00,
2013-07-02 04:30:00,65.6,64.4,29.83,ENE,75,0.0,0.0,96,0.00,,---,0.00,0.00,VWS V14.01,2013-07-02 08:30:00,
2013-07-02 04:33:00,65.6,64.4,29.83,ENE,75,0.0,0.0,96,0.00,,---,0.00,0.00,VWS V14.01,2013-07-02 08:33:00,
2013-07-02 04:35:00,65.6,64.4,29.83,ENE,75,0.0,1.0,96,0.00,,---,0.00,0.00,VWS V14.01,2013-07-02 08:35:00,
2013-07-02 04:39:00,65.6,64.4,29.83,ENE,75,0.0,1.0,96,0.00,,---,0.00,0.00,VWS V14.01,2013-07-02 08:39:00,
2013-07-02 04:40:00,65.6,64.7,29.84,ENE,75,0.0,1.0,97,0.00,,---,0.00,0.00,VWS V14.01,2013-07-02 08:40:00,
2013-07-02 04:44:00,65.6,64.4,29.83,ENE,75,0.0,0.0,96,0.00,,---,0.00,0.00,VWS V14.01,2013-07-02 08:44:00,
2013-07-02 04:45:00,65.6,64.7,29.84,ENE,75,0.0,1.0,97,0.00,,---,0.00,0.00,VWS V14.01,2013-07-02 08:45:00,
2013-07-02 04:49:00,65.6,64.7,29.84,ENE,75,0.0,1.0,97,0.00,,---,0.00,0.00,VWS V14.01,2013-07-02 08:49:00,
2013-07-02 04:50:00,65.6,64.7,29.84,ENE,75,0.0,2.0,97,0.00,,---,0.00,0.00,VWS V14.01,2013-07-02 08:50:00,
2013-07-02 04:54:00,65.6,64.7,29.84,ENE,75,0.0,0.0,97,0.00,,---,0.00,0.00,VWS V14.01,2013-07-02 08:54:00,
2013-07-02 04:55:00,65.7,64.8,29.84,ENE,75,0.0,1.0,97,0.00,,---,0.00,0.00,VWS V14.01,2013-07-02 08:55:00,
2013-07-02 04:59:00,65.7,64.8,29.84,ENE,75,0.0,1.0,97,0.00,,---,0.00,0.00,VWS V14.01,2013-07-02 08:59:00,
2013-07-02 05:00:00,65.8,64.9,29.84,ENE,74,1.0,2.0,97,0.00,,---,0.00,0.00,VWS V14.01,2013-07-02 09:00:00,
2013-07-02 05:04:00,65.7,64.8,29.84,ENE,75,0.0,1.0,97,0.00,,---,0.00,0.00,VWS V14.01,2013-07-02 09:04:00,
2013-07-02 05:05:00,65.8,64.9,29.84,ENE,75,0.0,2.0,97,0.00,,---,0.00,0.00,VWS V14.01,2013-07-02 09:05:00,
2013-07-02 05:09:00,65.8,64.9,29.84,ENE,75,0.0,2.0,97,0.00,,---,0.00,0.00,VWS V14.01,2013-07-02 09:09:00,
2013-07-02 05:10:00,65.8,64.9,29.85,ENE,75,0.0,0.0,97,0.00,,---,0.00,0.00,VWS V14.01,2013-07-02 09:10:00,
2013-07-02 05:14:00,65.8,64.9,29.84,ENE,75,0.0,0.0,97,0.00,,---,0.00,0.00,VWS V14.01,2013-07-02 09:14:00,
2013-07-02 05:15:00,65.8,64.9,29.85,ENE,75,0.0,0.0,97,0.00,,---,0.00,0.00,VWS V14.01,2013-07-02 09:15:00,
2013-07-02 05:19:00,65.8,64.9,29.85,ENE,75,0.0,0.0,97,0.00,,---,0.00,0.00,VWS V14.01,2013-07-02 09:19:00,
2013-07-02 05:20:00,65.9,65.0,29.85,ENE,75,0.0,1.0,97,0.00,,---,0.00,0.00,VWS V14.01,2013-07-02 09:20:00,
2013-07-02 05:24:00,65.9,65.0,29.85,ENE,75,0.0,0.0,97,0.00,,---,0.00,0.00,VWS V14.01,2013-07-02 09:24:00,
2013-07-02 05:25:00,65.9,65.0,29.85,ENE,75,0.0,1.0,97,0.00,,---,0.00,0.00,VWS V14.01,2013-07-02 09:25:00,
2013-07-02 05:29:00,65.9,65.0,29.85,ENE,75,0.0,0.0,97,0.00,,---,0.00,0.00,VWS V14.01,2013-07-02 09:29:00,
2013-07-02 05:30:00,66.0,65.1,29.85,ENE,75,0.0,1.0,97,0.01,,---,0.01,0.00,VWS V14.01,2013-07-02 09:30:00,
2013-07-02 05:34:00,65.9,65.0,29.85,ENE,75,0.0,1.0,97,0.01,,---,0.01,0.00,VWS V14.01,2013-07-02 09:34:00,
2013-07-02 05:35:00,66.0,65.1,29.85,ENE,75,0.0,2.0,97,0.01,,---,0.01,0.00,VWS V14.01,2013-07-02 09:35:00,
2013-07-02 05:39:00,66.0,65.1,29.85,ENE,75,0.0,2.0,97,0.01,,---,0.01,0.00,VWS V14.01,2013-07-02 09:39:00,
2013-07-02 05:40:00,66.1,65.2,29.85,ENE,75,0.0,1.0,97,0.01,,---,0.01,0.00,VWS V14.01,2013-07-02 09:40:00,
2013-07-02 05:44:00,66.1,65.2,29.85,ENE,75,0.0,1.0,97,0.01,,---,0.01,0.00,VWS V14.01,2013-07-02 09:44:00,
2013-07-02 05:45:00,66.0,65.1,29.86,ENE,75,0.0,3.0,97,0.01,,---,0.01,0.00,VWS V14.01,2013-07-02 09:45:00,
2013-07-02 05:49:00,66.1,65.2,29.86,ENE,75,0.0,3.0,97,0.01,,---,0.01,0.00,VWS V14.01,2013-07-02 09:49:00,
2013-07-02 05:50:00,66.0,65.1,29.86,ENE,75,0.0,1.0,97,0.01,,---,0.01,0.00,VWS V14.01,2013-07-02 09:50:00,
2013-07-02 05:54:00,66.0,65.1,29.86,ENE,75,0.0,1.0,97,0.01,,---,0.01,0.00,VWS V14.01,2013-07-02 09:54:00,
2013-07-02 05:55:00,66.1,65.2,29.86,ENE,75,0.0,1.0,97,0.01,,---,0.01,0.00,VWS V14.01,2013-07-02 09:55:00,
2013-07-02 05:59:00,66.1,65.2,29.86,ENE,75,0.0,0.0,97,0.01,,---,0.01,0.00,VWS V14.01,2013-07-02 09:59:00,
2013-07-02 06:00:00,66.1,65.2,29.86,ENE,75,0.0,2.0,97,0.01,,---,0.01,0.00,VWS V14.01,2013-07-02 10:00:00,
2013-07-02 06:04:00,66.1,65.2,29.86,ENE,75,0.0,1.0,97,0.01,,---,0.01,0.00,VWS V14.01,2013-07-02 10:04:00,
2013-07-02 06:05:00,66.1,65.2,29.86,ENE,75,0.0,3.0,97,0.01,,---,0.01,0.00,VWS V14.01,2013-07-02 10:05:00,
2013-07-02 06:09:00,66.1,65.2,29.86,ENE,75,2.0,3.0,97,0.01,,---,0.01,0.00,VWS V14.01,2013-07-02 10:09:00,
2013-07-02 06:10:00,66.1,65.2,29.87,ENE,75,0.0,2.0,97,0.01,,---,0.01,0.00,VWS V14.01,2013-07-02 10:10:00,
2013-07-02 06:14:00,66.1,65.2,29.87,ENE,75,0.0,1.0,97,0.01,,---,0.01,0.00,VWS V14.01,2013-07-02 10:14:00,
2013-07-02 06:15:00,66.1,65.2,29.87,ENE,75,0.0,2.0,97,0.01,,---,0.01,0.00,VWS V14.01,2013-07-02 10:15:00,
2013-07-02 06:19:00,66.1,65.2,29.87,ENE,75,0.0,0.0,97,0.01,,---,0.01,0.00,VWS V14.01,2013-07-02 10:19:00,
2013-07-02 06:20:00,66.1,65.2,29.87,ENE,75,2.0,3.0,97,0.01,,---,0.01,0.00,VWS V14.01,2013-07-02 10:20:00,
2013-07-02 06:24:00,66.1,65.2,29.87,ENE,75,3.0,3.0,97,0.01,,---,0.01,0.00,VWS V14.01,2013-07-02 10:24:00,
2013-07-02 06:25:00,66.1,65.2,29.88,ENE,75,0.0,2.0,97,0.01,,---,0.01,0.00,VWS V14.01,2013-07-02 10:25:00,
2013-07-02 06:29:00,66.0,65.1,29.87,ENE,75,0.0,2.0,97,0.01,,---,0.01,0.00,VWS V14.01,2013-07-02 10:29:00,
2013-07-02 06:30:00,66.1,65.2,29.88,ENE,75,0.0,1.0,97,0.01,,---,0.01,0.00,VWS V14.01,2013-07-02 10:30:00,
2013-07-02 06:34:00,66.1,65.2,29.88,ENE,75,0.0,1.0,97,0.01,,---,0.01,0.00,VWS V14.01,2013-07-02 10:34:00,
2013-07-02 06:35:00,66.1,65.2,29.88,ENE,75,0.0,2.0,97,0.00,,---,0.01,0.00,VWS V14.01,2013-07-02 10:35:00,
2013-07-02 06:39:00,66.1,65.2,29.88,ENE,75,0.0,0.0,97,0.00,,---,0.01,0.00,VWS V14.01,2013-07-02 10:39:00,
2013-07-02 06:40:00,66.1,65.2,29.88,ENE,75,0.0,0.0,97,0.00,,---,0.01,7.00,VWS V14.01,2013-07-02 10:40:00,
2013-07-02 06:44:00,66.1,65.2,29.88,ENE,75,0.0,0.0,97,0.00,,---,0.01,5.00,VWS V14.01,2013-07-02 10:44:00,
2013-07-02 06:45:00,66.1,65.2,29.88,ENE,75,0.0,0.0,97,0.00,,---,0.01,7.00,VWS V14.01,2013-07-02 10:45:00,
2013-07-02 06:49:00,66.1,65.2,29.88,ENE,75,0.0,0.0,97,0.00,,---,0.01,7.00,VWS V14.01,2013-07-02 10:49:00,
2013-07-02 06:50:00,66.2,65.3,29.88,ENE,75,0.0,1.0,97,0.00,,---,0.01,16.00,VWS V14.01,2013-07-02 10:50:00,
2013-07-02 06:54:00,66.1,65.2,29.88,ENE,75,0.0,1.0,97,0.00,,---,0.01,12.00,VWS V14.01,2013-07-02 10:54:00,
2013-07-02 06:55:00,66.2,65.3,29.88,ENE,75,0.0,0.0,97,0.00,,---,0.01,30.00,VWS V14.01,2013-07-02 10:55:00,
2013-07-02 06:59:00,66.2,65.3,29.88,ENE,75,0.0,0.0,97,0.00,,---,0.01,25.00,VWS V14.01,2013-07-02 10:59:00,
2013-07-02 07:00:00,66.3,65.4,29.88,ENE,75,0.0,1.0,97,0.00,,---,0.01,33.00,VWS V14.01,2013-07-02 11:00:00,
2013-07-02 07:04:00,66.2,65.3,29.88,ENE,75,0.0,0.0,97,0.00,,---,0.01,35.00,VWS V14.01,2013-07-02 11:04:00,
2013-07-02 07:05:00,66.3,65.4,29.88,ENE,75,0.0,1.0,97,0.00,,---,0.01,35.00,VWS V14.01,2013-07-02 11:05:00,
2013-07-02 07:09:00,66.3,65.4,29.88,ENE,75,0.0,1.0,97,0.00,,---,0.01,39.00,VWS V14.01,2013-07-02 11:09:00,
2013-07-02 07:10:00,66.4,65.5,29.88,ENE,75,0.0,1.0,97,0.00,,---,0.01,42.00,VWS V14.01,2013-07-02 11:10:00,
2013-07-02 07:14:00,66.4,65.5,29.88,ENE,75,0.0,1.0,97,0.00,,---,0.01,39.00,VWS V14.01,2013-07-02 11:14:00,
2013-07-02 07:15:00,66.5,65.9,29.88,ENE,75,0.0,1.0,98,0.00,,---,0.01,51.00,VWS V14.01,2013-07-02 11:15:00,
2013-07-02 07:19:00,66.5,65.6,29.88,ENE,75,0.0,1.0,97,0.00,,---,0.01,47.00,VWS V14.01,2013-07-02 11:19:00,
2013-07-02 07:20:00,66.5,65.9,29.88,ENE,75,0.0,1.0,98,0.00,,---,0.01,60.00,VWS V14.01,2013-07-02 11:20:00,
2013-07-02 07:24:00,66.5,65.9,29.88,ENE,75,0.0,1.0,98,0.00,,---,0.01,53.00,VWS V14.01,2013-07-02 11:24:00,
2013-07-02 07:25:00,66.6,66.0,29.88,ENE,75,0.0,1.0,98,0.00,,---,0.01,139.00,VWS V14.01,2013-07-02 11:25:00,
2013-07-02 07:29:00,66.6,66.0,29.88,ENE,75,0.0,1.0,98,0.00,,---,0.01,102.00,VWS V14.01,2013-07-02 11:29:00,
2013-07-02 07:30:00,66.7,66.1,29.88,ENE,75,0.0,2.0,98,0.00,,---,0.01,121.00,VWS V14.01,2013-07-02 11:30:00,
2013-07-02 07:34:00,66.6,66.0,29.88,ENE,75,0.0,1.0,98,0.00,,---,0.01,113.00,VWS V14.01,2013-07-02 11:34:00,
2013-07-02 07:35:00,66.8,66.2,29.88,ENE,75,0.0,2.0,98,0.00,,---,0.01,111.00,VWS V14.01,2013-07-02 11:35:00,
2013-07-02 07:39:00,66.8,66.2,29.88,ENE,75,1.0,2.0,98,0.00,,---,0.01,111.00,VWS V14.01,2013-07-02 11:39:00,
2013-07-02 07:40:00,66.9,66.3,29.88,ENE,75,0.0,1.0,98,0.00,,---,0.01,90.00,VWS V14.01,2013-07-02 11:40:00,
2013-07-02 07:44:00,66.9,66.3,29.88,ENE,75,0.0,1.0,98,0.00,,---,0.01,107.00,VWS V14.01,2013-07-02 11:44:00,
2013-07-02 07:45:00,67.0,66.4,29.89,ENE,75,0.0,2.0,98,0.00,,---,0.01,137.00,VWS V14.01,2013-07-02 11:45:00,
2013-07-02 07:49:00,66.9,66.3,29.89,ENE,75,0.0,2.0,98,0.00,,---,0.01,97.00,VWS V14.01,2013-07-02 11:49:00,
2013-07-02 07:50:00,67.1,66.5,29.89,ENE,75,1.0,2.0,98,0.00,,---,0.01,155.00,VWS V14.01,2013-07-02 11:50:00,
2013-07-02 07:54:00,67.0,66.4,29.89,ENE,75,0.0,0.0,98,0.00,,---,0.01,174.00,VWS V14.01,2013-07-02 11:54:00,
2013-07-02 07:55:00,67.2,66.6,29.88,ENE,75,0.0,2.0,98,0.00,,---,0.01,162.00,VWS V14.01,2013-07-02 11:55:00,
2013-07-02 07:59:00,67.1,66.5,29.89,ENE,75,0.0,1.0,98,0.00,,---,0.01,174.00,VWS V14.01,2013-07-02 11:59:00,
2013-07-02 08:00:00,67.2,66.6,29.89,ENE,75,0.0,1.0,98,0.00,,---,0.01,179.00,VWS V14.01,2013-07-02 12:00:00,
2013-07-02 08:04:00,67.2,66.6,29.89,ENE,75,0.0,1.0,98,0.00,,---,0.01,176.00,VWS V14.01,2013-07-02 12:04:00,
2013-07-02 08:05:00,67.4,66.8,29.90,ENE,75,3.0,3.0,98,0.00,,---,0.01,204.00,VWS V14.01,2013-07-02 12:05:00,
2013-07-02 08:09:00,67.3,66.7,29.89,ENE,75,0.0,2.0,98,0.00,,---,0.01,207.00,VWS V14.01,2013-07-02 12:09:00,
2013-07-02 08:10:00,67.6,67.0,29.89,ENE,75,3.0,3.0,98,0.00,,---,0.01,260.00,VWS V14.01,2013-07-02 12:10:00,
2013-07-02 08:14:00,67.5,66.9,29.89,ENE,75,0.0,3.0,98,0.00,,---,0.01,214.00,VWS V14.01,2013-07-02 12:14:00,
2013-07-02 08:15:00,67.7,66.8,29.89,East,94,0.0,4.0,97,0.00,,---,0.01,330.00,VWS V14.01,2013-07-02 12:15:00,
2013-07-02 08:19:00,67.6,66.7,29.90,East,94,0.0,4.0,97,0.00,,---,0.01,345.00,VWS V14.01,2013-07-02 12:19:00,
2013-07-02 08:20:00,67.9,67.3,29.90,East,94,2.0,2.0,98,0.00,,---,0.01,394.00,VWS V14.01,2013-07-02 12:20:00,
2013-07-02 08:24:00,67.9,67.3,29.90,East,94,0.0,2.0,98,0.00,,---,0.01,396.00,VWS V14.01,2013-07-02 12:24:00,
2013-07-02 08:25:00,68.1,67.2,29.90,SSE,154,0.0,5.0,97,0.00,,---,0.01,390.00,VWS V14.01,2013-07-02 12:25:00,
2013-07-02 08:29:00,68.1,67.2,29.89,SSE,156,3.0,5.0,97,0.00,,---,0.01,420.00,VWS V14.01,2013-07-02 12:29:00,
2013-07-02 08:30:00,68.2,67.3,29.90,SSE,153,2.0,5.0,97,0.00,,---,0.01,223.00,VWS V14.01,2013-07-02 12:30:00,
2013-07-02 08:34:00,68.2,67.3,29.90,SSE,160,0.0,3.0,97,0.00,,---,0.01,311.00,VWS V14.01,2013-07-02 12:34:00,
2013-07-02 08:35:00,68.2,67.0,29.90,SSE,163,0.0,4.0,96,0.00,,---,0.01,287.00,VWS V14.01,2013-07-02 12:35:00,
2013-07-02 08:39:00,68.2,67.3,29.90,SSE,155,2.0,3.0,97,0.00,,---,0.01,155.00,VWS V14.01,2013-07-02 12:39:00,
2013-07-02 08:40:00,68.4,67.2,29.90,SSE,148,3.0,3.0,96,0.00,,---,0.01,167.00,VWS V14.01,2013-07-02 12:40:00,
2013-07-02 08:44:00,68.3,67.1,29.90,SSE,163,1.0,1.0,96,0.00,,---,0.01,132.00,VWS V14.01,2013-07-02 12:44:00,
2013-07-02 08:45:00,68.4,66.9,29.90,SE,146,1.0,3.0,95,0.00,,---,0.01,183.00,VWS V14.01,2013-07-02 12:45:00,
2013-07-02 08:49:00,68.4,67.2,29.90,SE,146,1.0,3.0,96,0.00,,---,0.01,165.00,VWS V14.01,2013-07-02 12:49:00,
2013-07-02 08:50:00,68.5,67.0,29.90,SE,146,0.0,3.0,95,0.00,,---,0.01,193.00,VWS V14.01,2013-07-02 12:50:00,
2013-07-02 08:54:00,68.5,67.0,29.90,SE,146,1.0,3.0,95,0.00,,---,0.01,250.00,VWS V14.01,2013-07-02 12:54:00,
2013-07-02 08:55:00,68.6,66.8,29.89,SE,144,0.0,3.0,94,0.00,,---,0.01,146.00,VWS V14.01,2013-07-02 12:55:00,
2013-07-02 08:59:00,68.6,66.8,29.90,SE,144,2.0,3.0,94,0.00,,---,0.01,141.00,VWS V14.01,2013-07-02 12:59:00,
2013-07-02 09:00:00,68.7,66.9,29.90,SE,137,0.0,4.0,94,0.00,,---,0.01,105.00,VWS V14.01,2013-07-02 13:00:00,
2013-07-02 09:04:00,68.7,66.9,29.90,SE,142,3.0,3.0,94,0.00,,---,0.01,139.00,VWS V14.01,2013-07-02 13:04:00,
2013-07-02 09:05:00,68.7,66.6,29.90,SE,136,0.0,1.0,93,0.00,,---,0.01,95.00,VWS V14.01,2013-07-02 13:05:00,
2013-07-02 09:09:00,68.7,66.6,29.90,SE,136,1.0,1.0,93,0.00,,---,0.01,84.00,VWS V14.01,2013-07-02 13:09:00,
2013-07-02 09:10:00,68.7,66.6,29.90,SE,136,0.0,1.0,93,0.00,,---,0.01,200.00,VWS V14.01,2013-07-02 13:10:00,
2013-07-02 09:14:00,68.7,66.6,29.90,SE,136,0.0,1.0,93,0.00,,---,0.01,141.00,VWS V14.01,2013-07-02 13:14:00,
2013-07-02 09:15:00,68.9,66.8,29.90,SE,136,0.0,1.0,93,0.00,,---,0.01,322.00,VWS V14.01,2013-07-02 13:15:00,
2013-07-02 09:19:00,68.8,66.7,29.90,SE,136,0.0,1.0,93,0.00,,---,0.01,255.00,VWS V14.01,2013-07-02 13:19:00,
2013-07-02 09:20:00,69.0,66.9,29.90,SE,136,0.0,3.0,93,0.00,,---,0.01,332.00,VWS V14.01,2013-07-02 13:20:00,
2013-07-02 09:24:00,69.0,66.9,29.90,SE,136,0.0,3.0,93,0.00,,---,0.01,320.00,VWS V14.01,2013-07-02 13:24:00,
2013-07-02 09:25:00,69.4,67.0,29.91,SE,133,0.0,4.0,92,0.00,,---,0.01,383.00,VWS V14.01,2013-07-02 13:25:00,
2013-07-02 09:30:00,69.3,67.2,29.90,SE,134,4.0,4.0,93,0.00,,---,0.01,383.00,VWS V14.01,2013-07-02 13:30:00,
2013-07-02 09:35:00,69.5,66.8,29.91,SE,132,0.0,5.0,91,0.00,,---,0.01,299.00,VWS V14.01,2013-07-02 13:35:00,
2013-07-02 09:40:00,69.7,66.6,29.91,SE,132,0.0,3.0,90,0.00,,---,0.01,294.00,VWS V14.01,2013-07-02 13:40:00,
2013-07-02 09:45:00,70.1,67.4,29.91,SE,132,0.0,1.0,91,0.00,,---,0.01,316.00,VWS V14.01,2013-07-02 13:45:00,
2013-07-02 09:50:00,70.4,67.3,29.91,SSE,155,3.0,5.0,90,0.00,,---,0.01,552.00,VWS V14.01,2013-07-02 13:50:00,
2013-07-02 09:55:00,70.6,67.2,29.91,SSE,150,0.0,4.0,89,0.00,,---,0.01,125.00,VWS V14.01,2013-07-02 13:55:00,
2013-07-02 10:00:00,70.7,67.3,29.91,SSE,150,0.0,1.0,89,0.00,,---,0.01,248.00,VWS V14.01,2013-07-02 14:00:00,
2013-07-02 10:05:00,70.9,67.2,29.91,SE,143,0.0,4.0,88,0.00,,---,0.01,548.00,VWS V14.01,2013-07-02 14:05:00,
2013-07-02 10:10:00,71.2,67.5,29.91,SE,143,0.0,3.0,88,0.00,,---,0.01,295.00,VWS V14.01,2013-07-02 14:10:00,
2013-07-02 10:15:00,71.3,67.2,29.91,SE,143,1.0,2.0,87,0.00,,---,0.01,304.00,VWS V14.01,2013-07-02 14:15:00,
2013-07-02 10:20:00,71.5,67.4,29.92,SSE,148,3.0,4.0,87,0.00,,---,0.01,330.00,VWS V14.01,2013-07-02 14:20:00,
2013-07-02 10:25:00,71.7,67.3,29.91,SSE,164,0.0,4.0,86,0.00,,---,0.01,343.00,VWS V14.01,2013-07-02 14:25:00,
2013-07-02 10:30:00,71.9,67.5,29.91,SSE,165,0.0,3.0,86,0.00,,---,0.01,786.00,VWS V14.01,2013-07-02 14:30:00,
2013-07-02 10:35:00,72.3,67.5,29.91,SE,134,3.0,4.0,85,0.00,,---,0.01,251.00,VWS V14.01,2013-07-02 14:35:00,
2013-07-02 10:40:00,72.5,68.1,29.91,SE,144,0.0,3.0,86,0.00,,---,0.01,884.00,VWS V14.01,2013-07-02 14:40:00,
2013-07-02 10:45:00,73.2,68.4,29.92,South,178,0.0,9.0,85,0.00,,---,0.01,963.00,VWS V14.01,2013-07-02 14:45:00,
2013-07-02 10:50:00,73.5,68.4,29.92,South,176,0.0,5.0,84,0.00,,---,0.01,533.00,VWS V14.01,2013-07-02 14:50:00,
2013-07-02 10:55:00,73.8,68.3,29.92,SSE,163,5.0,8.0,83,0.00,,---,0.01,413.00,VWS V14.01,2013-07-02 14:55:00,
2013-07-02 11:00:00,73.9,68.1,29.92,South,188,3.0,9.0,82,0.00,,---,0.01,336.00,VWS V14.01,2013-07-02 15:00:00,
2013-07-02 11:05:00,73.9,68.1,29.92,South,188,1.0,7.0,82,0.00,,---,0.01,689.00,VWS V14.01,2013-07-02 15:05:00,
2013-07-02 11:10:00,73.9,68.1,29.92,SE,130,0.0,5.0,82,0.00,,---,0.01,438.00,VWS V14.01,2013-07-02 15:10:00,
2013-07-02 11:15:00,74.0,68.5,29.92,SSE,153,3.0,4.0,83,0.00,,---,0.01,448.00,VWS V14.01,2013-07-02 15:15:00,
2013-07-02 11:20:00,74.3,68.8,29.92,SSE,157,1.0,3.0,83,0.00,,---,0.01,1076.00,VWS V14.01,2013-07-02 15:20:00,
2013-07-02 11:25:00,74.8,68.6,29.92,ESE,107,4.0,4.0,81,0.00,,---,0.01,921.00,VWS V14.01,2013-07-02 15:25:00,
2013-07-02 11:30:00,75.1,68.5,29.92,ESE,115,5.0,6.0,80,0.00,,---,0.01,775.00,VWS V14.01,2013-07-02 15:30:00,
2013-07-02 11:35:00,75.4,69.2,29.92,SSW,197,2.0,6.0,81,0.00,,---,0.01,1046.00,VWS V14.01,2013-07-02 15:35:00,
2013-07-02 11:40:00,75.8,69.2,29.92,SSW,207,1.0,6.0,80,0.00,,---,0.01,413.00,VWS V14.01,2013-07-02 15:40:00,
2013-07-02 11:45:00,75.8,68.8,29.92,East,84,0.0,5.0,79,0.00,,---,0.01,369.00,VWS V14.01,2013-07-02 15:45:00,
2013-07-02 11:50:00,75.9,69.3,29.92,SE,136,1.0,2.0,80,0.00,,---,0.01,415.00,VWS V14.01,2013-07-02 15:50:00,
2013-07-02 11:55:00,76.0,68.7,29.92,East,97,0.0,5.0,78,0.00,,---,0.01,346.00,VWS V14.01,2013-07-02 15:55:00,
2013-07-02 12:00:00,76.2,69.2,29.92,South,186,1.0,4.0,79,0.00,,---,0.01,455.00,VWS V14.01,2013-07-02 16:00:00,
2013-07-02 12:05:00,76.4,69.0,29.92,SE,139,1.0,7.0,78,0.00,,---,0.01,1093.00,VWS V14.01,2013-07-02 16:05:00,
2013-07-02 12:10:00,76.5,68.8,29.91,ESE,115,2.0,3.0,77,0.00,,---,0.01,960.00,VWS V14.01,2013-07-02 16:10:00,
2013-07-02 12:15:00,76.8,68.7,29.92,SE,125,0.0,10.0,76,0.00,,---,0.01,1009.00,VWS V14.01,2013-07-02 16:15:00,
2013-07-02 12:20:00,77.1,69.3,29.92,SSW,195,3.0,8.0,77,0.00,,---,0.01,926.00,VWS V14.01,2013-07-02 16:20:00,
2013-07-02 12:25:00,77.3,68.4,29.92,West,267,2.0,7.0,74,0.00,,---,0.01,357.00,VWS V14.01,2013-07-02 16:25:00,
2013-07-02 12:26:00,77.3,68.0,29.92,SSE,150,0.0,6.0,73,0.00,,---,0.01,1051.00,VWS V14.01,2013-07-02 16:26:00,
2013-07-02 12:30:00,77.3,68.0,29.92,South,173,3.0,4.0,73,0.00,,---,0.01,357.00,VWS V14.01,2013-07-02 16:30:00,
2013-07-02 12:35:00,77.1,67.8,29.92,West,271,1.0,3.0,73,0.00,,---,0.01,436.00,VWS V14.01,2013-07-02 16:35:00,
2013-07-02 12:40:00,77.2,69.4,29.92,SSE,168,0.0,3.0,77,0.00,,---,0.01,332.00,VWS V14.01,2013-07-02 16:40:00,
2013-07-02 12:41:00,76.9,68.8,29.92,SSW,194,1.0,7.0,76,0.00,,---,0.01,580.00,VWS V14.01,2013-07-02 16:41:00,
2013-07-02 12:45:00,77.2,68.7,29.92,SE,146,0.0,6.0,75,0.00,,---,0.01,387.00,VWS V14.01,2013-07-02 16:45:00,
2013-07-02 12:46:00,77.1,69.3,29.92,SSE,168,0.0,3.0,77,0.00,,---,0.01,350.00,VWS V14.01,2013-07-02 16:46:00,
2013-07-02 12:50:00,77.3,68.8,29.92,SE,146,0.0,2.0,75,0.00,,---,0.01,461.00,VWS V14.01,2013-07-02 16:50:00,
2013-07-02 12:51:00,77.2,68.7,29.92,SE,144,1.0,6.0,75,0.00,,---,0.01,373.00,VWS V14.01,2013-07-02 16:51:00,
2013-07-02 12:55:00,77.4,68.9,29.92,SE,138,4.0,6.0,75,0.00,,---,0.01,504.00,VWS V14.01,2013-07-02 16:55:00,
2013-07-02 12:56:00,77.3,68.8,29.92,SE,146,0.0,2.0,75,0.00,,---,0.01,438.00,VWS V14.01,2013-07-02 16:56:00,
2013-07-02 13:00:00,77.5,69.0,29.92,ESE,102,3.0,4.0,75,0.00,,---,0.01,420.00,VWS V14.01,2013-07-02 17:00:00,
2013-07-02 13:01:00,77.4,68.5,29.92,SE,129,4.0,6.0,74,0.00,,---,0.01,504.00,VWS V14.01,2013-07-02 17:01:00,
2013-07-02 13:05:00,77.7,69.2,29.92,SE,132,4.0,4.0,75,0.00,,---,0.01,399.00,VWS V14.01,2013-07-02 17:05:00,
2013-07-02 13:06:00,77.5,69.0,29.92,ESE,103,0.0,4.0,75,0.00,,---,0.01,420.00,VWS V14.01,2013-07-02 17:06:00,
2013-07-02 13:10:00,78.1,68.8,29.91,SW,226,1.0,7.0,73,0.00,,---,0.01,650.00,VWS V14.01,2013-07-02 17:10:00,
2013-07-02 13:11:00,77.7,69.2,29.92,ESE,107,4.0,4.0,75,0.00,,---,0.01,399.00,VWS V14.01,2013-07-02 17:11:00,
2013-07-02 13:15:00,78.5,69.5,29.91,SSW,198,4.0,10.0,74,0.00,,---,0.01,1095.00,VWS V14.01,2013-07-02 17:15:00,
2013-07-02 13:16:00,78.1,69.1,29.91,SW,226,4.0,7.0,74,0.00,,---,0.01,712.00,VWS V14.01,2013-07-02 17:16:00,
2013-07-02 13:20:00,78.7,68.9,29.91,WSW,237,3.0,11.0,72,0.00,,---,0.01,582.00,VWS V14.01,2013-07-02 17:20:00,
2013-07-02 13:21:00,78.5,69.5,29.91,SW,219,4.0,10.0,74,0.00,,---,0.01,1095.00,VWS V14.01,2013-07-02 17:21:00,
2013-07-02 13:25:00,78.6,68.8,29.91,South,175,3.0,11.0,72,0.00,,---,0.01,482.00,VWS V14.01,2013-07-02 17:25:00,
2013-07-02 13:26:00,78.7,68.9,29.91,WSW,243,6.0,11.0,72,0.00,,---,0.01,582.00,VWS V14.01,2013-07-02 17:26:00,
2013-07-02 13:30:00,78.6,69.2,29.91,South,173,3.0,6.0,73,0.00,,---,0.01,540.00,VWS V14.01,2013-07-02 17:30:00,
2013-07-02 13:31:00,78.6,68.8,29.91,SSE,164,4.0,11.0,72,0.00,,---,0.01,475.00,VWS V14.01,2013-07-02 17:31:00,
2013-07-02 13:35:00,79.0,69.6,29.91,SSE,150,0.0,5.0,73,0.00,,---,0.01,1093.00,VWS V14.01,2013-07-02 17:35:00,
2013-07-02 13:36:00,78.5,68.3,29.91,South,173,1.0,6.0,71,0.00,,---,0.01,540.00,VWS V14.01,2013-07-02 17:36:00,
2013-07-02 13:40:00,79.2,69.8,29.91,South,185,1.0,12.0,73,0.00,,---,0.01,462.00,VWS V14.01,2013-07-02 17:40:00,
2013-07-02 13:41:00,79.0,70.4,29.91,SSE,150,1.0,5.0,75,0.00,,---,0.01,1093.00,VWS V14.01,2013-07-02 17:41:00,
2013-07-02 13:45:00,79.2,69.0,29.91,SW,225,0.0,5.0,71,0.00,,---,0.01,691.00,VWS V14.01,2013-07-02 17:45:00,
2013-07-02 13:46:00,79.2,69.4,29.91,South,181,2.0,12.0,72,0.00,,---,0.01,462.00,VWS V14.01,2013-07-02 17:46:00,
2013-07-02 13:50:00,79.5,71.3,29.91,WSW,238,5.0,6.0,76,0.00,,---,0.01,898.00,VWS V14.01,2013-07-02 17:50:00,
2013-07-02 13:51:00,79.2,69.0,29.91,SW,225,1.0,5.0,71,0.00,,---,0.01,761.00,VWS V14.01,2013-07-02 17:51:00,
2013-07-02 13:55:00,79.9,70.9,29.91,South,175,4.0,12.0,74,0.00,,---,0.01,1074.00,VWS V14.01,2013-07-02 17:55:00,
2013-07-02 13:56:00,79.5,71.3,29.91,South,178,1.0,6.0,76,0.00,,---,0.01,668.00,VWS V14.01,2013-07-02 17:56:00,
2013-07-02 14:00:00,80.1,70.7,29.91,SW,218,6.0,10.0,73,0.00,,---,0.01,369.00,VWS V14.01,2013-07-02 18:00:00,
2013-07-02 14:01:00,79.9,70.9,29.91,SE,146,0.0,12.0,74,0.00,,---,0.01,1074.00,VWS V14.01,2013-07-02 18:01:00,
2013-07-02 14:05:00,80.1,70.3,29.91,SSW,195,1.0,9.0,72,0.00,,---,0.01,306.00,VWS V14.01,2013-07-02 18:05:00,
2013-07-02 14:06:00,80.1,70.7,29.91,SSW,211,7.0,10.0,73,0.00,,---,0.01,369.00,VWS V14.01,2013-07-02 18:06:00,
2013-07-02 14:10:00,80.0,70.6,29.91,SSW,200,0.0,6.0,73,0.00,,---,0.01,485.00,VWS V14.01,2013-07-02 18:10:00,
2013-07-02 14:11:00,80.1,70.3,29.91,SSW,200,2.0,9.0,72,0.00,,---,0.01,306.00,VWS V14.01,2013-07-02 18:11:00,
2013-07-02 14:15:00,80.0,71.0,29.91,South,186,4.0,4.0,74,0.00,,---,0.01,364.00,VWS V14.01,2013-07-02 18:15:00,
2013-07-02 14:16:00,80.0,70.6,29.91,SSW,200,0.0,6.0,73,0.00,,---,0.01,485.00,VWS V14.01,2013-07-02 18:16:00,
2013-07-02 14:20:00,80.0,70.6,29.91,South,170,2.0,5.0,73,0.00,,---,0.01,1056.00,VWS V14.01,2013-07-02 18:20:00,
2013-07-02 14:21:00,80.0,71.0,29.91,South,187,2.0,4.0,74,0.00,,---,0.01,364.00,VWS V14.01,2013-07-02 18:21:00,
2013-07-02 14:25:00,80.2,70.8,29.91,SE,143,2.0,7.0,73,0.00,,---,0.01,1069.00,VWS V14.01,2013-07-02 18:25:00,
2013-07-02 14:26:00,80.0,70.6,29.91,South,170,1.0,5.0,73,0.00,,---,0.01,1056.00,VWS V14.01,2013-07-02 18:26:00,
2013-07-02 14:30:00,80.0,69.3,29.91,SE,133,0.0,7.0,70,0.00,,---,0.01,1125.00,VWS V14.01,2013-07-02 18:30:00,
2013-07-02 14:31:00,80.1,70.7,29.91,SE,142,4.0,7.0,73,0.00,,---,0.01,1069.00,VWS V14.01,2013-07-02 18:31:00,
2013-07-02 14:35:00,80.5,70.7,29.91,South,176,3.0,7.0,72,0.00,,---,0.01,1120.00,VWS V14.01,2013-07-02 18:35:00,
2013-07-02 14:36:00,80.0,69.3,29.91,SE,133,0.0,7.0,70,0.00,,---,0.01,1125.00,VWS V14.01,2013-07-02 18:36:00,
2013-07-02 14:40:00,80.8,70.9,29.91,SE,136,0.0,5.0,72,0.00,,---,0.01,478.00,VWS V14.01,2013-07-02 18:40:00,
2013-07-02 14:41:00,80.5,70.7,29.91,South,176,4.0,7.0,72,0.00,,---,0.01,1151.00,VWS V14.01,2013-07-02 18:41:00,
2013-07-02 14:45:00,80.9,70.6,29.91,South,180,2.0,9.0,71,0.00,,---,0.01,283.00,VWS V14.01,2013-07-02 18:45:00,
2013-07-02 14:46:00,80.8,70.9,29.91,SE,136,0.0,5.0,72,0.00,,---,0.01,478.00,VWS V14.01,2013-07-02 18:46:00,
2013-07-02 14:50:00,80.7,70.4,29.91,South,179,1.0,5.0,71,0.00,,---,0.01,369.00,VWS V14.01,2013-07-02 18:50:00,
2013-07-02 14:51:00,80.9,70.6,29.91,South,180,4.0,9.0,71,0.00,,---,0.01,283.00,VWS V14.01,2013-07-02 18:51:00,
2013-07-02 14:55:00,80.7,71.2,29.91,South,169,3.0,4.0,73,0.00,,---,0.01,1078.00,VWS V14.01,2013-07-02 18:55:00,
2013-07-02 14:56:00,80.7,70.4,29.91,South,179,1.0,5.0,71,0.00,,---,0.01,369.00,VWS V14.01,2013-07-02 18:56:00,
2013-07-02 15:00:00,81.0,71.1,29.91,SSE,161,3.0,7.0,72,0.00,,---,0.01,1009.00,VWS V14.01,2013-07-02 19:00:00,
2013-07-02 15:01:00,80.7,71.2,29.91,South,169,3.0,4.0,73,0.00,,---,0.01,1078.00,VWS V14.01,2013-07-02 19:01:00,
2013-07-02 15:05:00,81.0,69.9,29.91,SSE,165,4.0,12.0,69,0.00,,---,0.01,369.00,VWS V14.01,2013-07-02 19:05:00,
2013-07-02 15:06:00,81.0,71.1,29.91,SSE,161,3.0,7.0,72,0.00,,---,0.01,1009.00,VWS V14.01,2013-07-02 19:06:00,
2013-07-02 15:10:00,80.7,70.0,29.91,South,173,3.0,7.0,70,0.00,,---,0.01,397.00,VWS V14.01,2013-07-02 19:10:00,
2013-07-02 15:11:00,81.0,69.9,29.91,SSE,165,4.0,12.0,69,0.00,,---,0.01,369.00,VWS V14.01,2013-07-02 19:11:00,
2013-07-02 15:15:00,80.6,70.3,29.91,SSW,201,5.0,6.0,71,0.00,,---,0.01,461.00,VWS V14.01,2013-07-02 19:15:00,
2013-07-02 15:16:00,80.7,70.0,29.91,South,173,3.0,7.0,70,0.00,,---,0.01,397.00,VWS V14.01,2013-07-02 19:16:00,
2013-07-02 15:20:00,80.7,70.8,29.91,South,186,6.0,6.0,72,0.00,,---,0.01,700.00,VWS V14.01,2013-07-02 19:20:00,
2013-07-02 15:21:00,80.6,70.3,29.91,SSW,201,5.0,6.0,71,0.00,,---,0.01,461.00,VWS V14.01,2013-07-02 19:21:00,
2013-07-02 15:25:00,80.8,70.5,29.91,South,173,0.0,13.0,71,0.00,,---,0.01,381.00,VWS V14.01,2013-07-02 19:25:00,
2013-07-02 15:26:00,80.7,70.8,29.91,South,186,6.0,6.0,72,0.00,,---,0.01,700.00,VWS V14.01,2013-07-02 19:26:00,
2013-07-02 15:30:00,80.7,70.0,29.90,South,178,2.0,7.0,70,0.00,,---,0.01,387.00,VWS V14.01,2013-07-02 19:30:00,
2013-07-02 15:31:00,80.8,70.5,29.91,South,173,0.0,13.0,71,0.00,,---,0.01,381.00,VWS V14.01,2013-07-02 19:31:00,
2013-07-02 15:35:00,80.7,71.2,29.90,SSW,198,6.0,14.0,73,0.00,,---,0.01,501.00,VWS V14.01,2013-07-02 19:35:00,
2013-07-02 15:36:00,80.7,70.0,29.90,South,178,2.0,7.0,70,0.00,,---,0.01,387.00,VWS V14.01,2013-07-02 19:36:00,
2013-07-02 15:40:00,81.1,71.2,29.90,SSW,201,6.0,9.0,72,0.00,,---,0.01,1002.00,VWS V14.01,2013-07-02 19:40:00,
2013-07-02 15:41:00,80.7,71.2,29.90,SSW,198,6.0,14.0,73,0.00,,---,0.01,501.00,VWS V14.01,2013-07-02 19:41:00,
2013-07-02 15:45:00,81.4,71.5,29.90,South,176,0.0,9.0,72,0.00,,---,0.01,1037.00,VWS V14.01,2013-07-02 19:45:00,
2013-07-02 15:46:00,81.1,71.2,29.90,SSW,201,6.0,9.0,72,0.00,,---,0.01,1002.00,VWS V14.01,2013-07-02 19:46:00,
2013-07-02 15:50:00,81.5,70.8,29.89,SE,125,1.0,5.0,70,0.00,,---,0.01,216.00,VWS V14.01,2013-07-02 19:50:00,
2013-07-02 15:51:00,81.4,71.5,29.90,South,176,0.0,9.0,72,0.00,,---,0.01,1037.00,VWS V14.01,2013-07-02 19:51:00,
2013-07-02 15:55:00,81.2,70.5,29.90,SE,144,1.0,5.0,70,0.00,,---,0.01,243.00,VWS V14.01,2013-07-02 19:55:00,
2013-07-02 15:56:00,81.6,70.9,29.89,SE,125,2.0,5.0,70,0.00,,---,0.01,216.00,VWS V14.01,2013-07-02 19:56:00,
2013-07-02 16:00:00,82.3,70.3,29.89,South,186,0.0,5.0,67,0.00,,---,0.00,374.00,VWS V14.01,2013-07-02 20:00:00,
2013-07-02 16:01:00,81.2,70.5,29.90,SE,144,0.0,1.0,70,0.00,,---,0.01,243.00,VWS V14.01,2013-07-02 20:01:00,
2013-07-02 16:02:00,82.4,71.2,29.89,South,178,1.0,5.0,69,0.00,,---,0.00,316.00,VWS V14.01,2013-07-02 20:02:00,
2013-07-02 16:03:00,82.4,71.6,29.89,SE,143,6.0,6.0,70,0.00,,---,0.00,258.00,VWS V14.01,2013-07-02 20:03:00,
2013-07-02 16:04:00,82.3,71.1,29.89,ESE,111,5.0,6.0,69,0.00,,---,0.00,234.00,VWS V14.01,2013-07-02 20:04:00,
2013-07-02 16:05:00,82.2,70.6,29.89,SE,144,2.0,6.0,68,0.00,,---,0.00,218.00,VWS V14.01,2013-07-02 20:05:00,
2013-07-02 16:06:00,81.2,72.5,29.90,South,180,2.0,2.0,75,0.00,,---,0.01,930.00,VWS V14.01,2013-07-02 20:06:00,
2013-07-02 16:07:00,82.1,70.9,29.89,SSE,155,4.0,6.0,69,0.00,,---,0.00,176.00,VWS V14.01,2013-07-02 20:07:00,
2013-07-02 16:08:00,82.0,70.8,29.89,SSE,158,0.0,6.0,69,0.00,,---,0.00,172.00,VWS V14.01,2013-07-02 20:08:00,
2013-07-02 16:09:00,81.9,71.2,29.89,South,171,3.0,6.0,70,0.00,,---,0.00,171.00,VWS V14.01,2013-07-02 20:09:00,
2013-07-02 16:10:00,81.8,71.1,29.89,South,171,0.0,6.0,70,0.00,,---,0.00,167.00,VWS V14.01,2013-07-02 20:10:00,
2013-07-02 16:11:00,81.4,71.1,29.89,SSW,192,4.0,4.0,71,0.00,,---,0.01,921.00,VWS V14.01,2013-07-02 20:11:00,
2013-07-02 16:12:00,81.6,71.3,29.89,South,189,2.0,6.0,71,0.00,,---,0.00,156.00,VWS V14.01,2013-07-02 20:12:00,
2013-07-02 16:13:00,81.6,71.3,29.89,South,189,0.0,6.0,71,0.00,,---,0.00,156.00,VWS V14.01,2013-07-02 20:13:00,
2013-07-02 16:14:00,81.5,71.2,29.89,South,189,0.0,6.0,71,0.00,,---,0.00,155.00,VWS V14.01,2013-07-02 20:14:00,
2013-07-02 16:15:00,81.4,71.5,29.89,South,189,1.0,6.0,72,0.00,,---,0.00,156.00,VWS V14.01,2013-07-02 20:15:00,
2013-07-02 16:16:00,81.8,71.5,29.89,SW,221,1.0,7.0,71,0.00,,---,0.01,991.00,VWS V14.01,2013-07-02 20:16:00,
2013-07-02 16:17:00,81.2,71.3,29.89,South,189,1.0,6.0,72,0.00,,---,0.00,171.00,VWS V14.01,2013-07-02 20:17:00,
2013-07-02 16:18:00,81.1,71.2,29.89,South,189,0.0,6.0,72,0.00,,---,0.00,190.00,VWS V14.01,2013-07-02 20:18:00,
2013-07-02 16:19:00,81.0,71.1,29.89,South,189,0.0,6.0,72,0.00,,---,0.00,218.00,VWS V14.01,2013-07-02 20:19:00,
2013-07-02 16:20:00,81.0,71.1,29.89,South,190,0.0,6.0,72,0.00,,---,0.00,218.00,VWS V14.01,2013-07-02 20:20:00,
2013-07-02 16:21:00,82.0,70.8,29.89,South,170,0.0,5.0,69,0.00,,---,0.01,1056.00,VWS V14.01,2013-07-02 20:21:00,
2013-07-02 16:22:00,80.9,71.8,29.89,SSW,201,0.0,6.0,74,0.00,,---,0.00,218.00,VWS V14.01,2013-07-02 20:22:00,
2013-07-02 16:23:00,80.8,71.7,29.89,South,180,1.0,6.0,74,0.00,,---,0.00,851.00,VWS V14.01,2013-07-02 20:23:00,
2013-07-02 16:24:00,80.8,71.3,29.89,South,182,0.0,6.0,73,0.00,,---,0.00,823.00,VWS V14.01,2013-07-02 20:24:00,
2013-07-02 16:25:00,80.8,71.3,29.89,South,182,0.0,6.0,73,0.00,,---,0.00,816.00,VWS V14.01,2013-07-02 20:25:00,
2013-07-02 16:26:00,82.2,71.4,29.89,SSW,204,2.0,3.0,70,0.00,,---,0.01,958.00,VWS V14.01,2013-07-02 20:26:00,
2013-07-02 16:27:00,80.8,71.3,29.89,ESE,106,4.0,4.0,73,0.00,,---,0.00,812.00,VWS V14.01,2013-07-02 20:27:00,
2013-07-02 16:28:00,80.9,71.4,29.89,South,171,1.0,4.0,73,0.00,,---,0.00,812.00,VWS V14.01,2013-07-02 20:28:00,
2013-07-02 16:29:00,80.9,71.4,29.89,South,171,2.0,4.0,73,0.00,,---,0.00,812.00,VWS V14.01,2013-07-02 20:29:00,
2013-07-02 16:30:00,80.9,71.8,29.89,SSW,205,0.0,5.0,74,0.00,,---,0.00,812.00,VWS V14.01,2013-07-02 20:30:00,
2013-07-02 16:31:00,81.0,71.9,29.89,SSW,198,6.0,7.0,74,0.00,,---,0.00,812.00,VWS V14.01,2013-07-02 20:31:00,
2013-07-02 16:32:00,81.1,72.0,29.89,South,190,2.0,7.0,74,0.00,,---,0.00,812.00,VWS V14.01,2013-07-02 20:32:00,
2013-07-02 16:33:00,81.1,72.0,29.89,South,190,0.0,7.0,74,0.00,,---,0.00,812.00,VWS V14.01,2013-07-02 20:33:00,
2013-07-02 16:34:00,81.2,71.7,29.89,South,179,2.0,7.0,73,0.00,,---,0.00,812.00,VWS V14.01,2013-07-02 20:34:00,
2013-07-02 16:35:00,81.3,72.2,29.89,SSW,194,4.0,7.0,74,0.00,,---,0.00,315.00,VWS V14.01,2013-07-02 20:35:00,
2013-07-02 16:36:00,81.4,71.9,29.89,South,188,4.0,10.0,73,0.00,,---,0.00,281.00,VWS V14.01,2013-07-02 20:36:00,
2013-07-02 16:37:00,81.3,71.0,29.89,South,182,2.0,10.0,71,0.00,,---,0.00,271.00,VWS V14.01,2013-07-02 20:37:00,
2013-07-02 16:38:00,81.4,71.1,29.89,SSE,168,4.0,10.0,71,0.00,,---,0.00,271.00,VWS V14.01,2013-07-02 20:38:00,
2013-07-02 16:39:00,81.3,71.0,29.89,SE,133,10.0,10.0,71,0.00,,---,0.00,241.00,VWS V14.01,2013-07-02 20:39:00,
2013-07-02 16:40:00,81.3,71.0,29.89,South,188,5.0,10.0,71,0.00,,---,0.00,258.00,VWS V14.01,2013-07-02 20:40:00,
2013-07-02 16:41:00,81.2,70.9,29.89,SE,142,3.0,10.0,71,0.00,,---,0.00,250.00,VWS V14.01,2013-07-02 20:41:00,
2013-07-02 16:42:00,81.2,70.9,29.89,South,171,2.0,10.0,71,0.00,,---,0.00,225.00,VWS V14.01,2013-07-02 20:42:00,
2013-07-02 16:43:00,81.1,71.2,29.89,South,178,5.0,10.0,72,0.00,,---,0.00,174.00,VWS V14.01,2013-07-02 20:43:00,
2013-07-02 16:44:00,81.0,71.1,29.89,South,177,1.0,10.0,72,0.00,,---,0.00,167.00,VWS V14.01,2013-07-02 20:44:00,
2013-07-02 16:45:00,81.0,71.1,29.89,SSE,168,2.0,10.0,72,0.00,,---,0.00,160.00,VWS V14.01,2013-07-02 20:45:00,
2013-07-02 16:46:00,80.9,71.0,29.89,SSE,165,1.0,3.0,72,0.00,,---,0.00,149.00,VWS V14.01,2013-07-02 20:46:00,
2013-07-02 16:47:00,80.8,71.3,29.89,South,184,6.0,6.0,73,0.00,,---,0.00,142.00,VWS V14.01,2013-07-02 20:47:00,
2013-07-02 16:48:00,80.7,71.2,29.89,SE,126,4.0,8.0,73,0.00,,---,0.00,134.00,VWS V14.01,2013-07-02 20:48:00,
2013-07-02 16:49:00,80.6,71.2,29.89,South,169,2.0,8.0,73,0.00,,---,0.00,116.00,VWS V14.01,2013-07-02 20:49:00,
2013-07-02 16:50:00,80.4,71.0,29.89,SSE,161,2.0,13.0,73,0.00,,---,0.00,114.00,VWS V14.01,2013-07-02 20:50:00,
2013-07-02 16:51:00,80.2,70.8,29.89,SSE,160,0.0,4.0,73,0.00,,---,0.00,111.00,VWS V14.01,2013-07-02 20:51:00,
2013-07-02 16:52:00,80.1,70.7,29.89,ESE,103,1.0,6.0,73,0.00,,---,0.00,111.00,VWS V14.01,2013-07-02 20:52:00,
2013-07-02 16:53:00,80.0,71.0,29.89,ESE,103,2.0,6.0,74,0.00,,---,0.00,109.00,VWS V14.01,2013-07-02 20:53:00,
2013-07-02 16:54:00,79.8,70.8,29.90,SE,132,0.0,6.0,74,0.00,,---,0.00,109.00,VWS V14.01,2013-07-02 20:54:00,
2013-07-02 16:55:00,79.7,70.7,29.89,SSE,149,1.0,6.0,74,0.00,,---,0.00,113.00,VWS V14.01,2013-07-02 20:55:00,
2013-07-02 16:56:00,79.5,70.5,29.90,SSE,155,0.0,5.0,74,0.00,,---,0.00,113.00,VWS V14.01,2013-07-02 20:56:00,
2013-07-02 16:57:00,79.4,70.4,29.89,SSE,164,3.0,5.0,74,0.00,,---,0.00,111.00,VWS V14.01,2013-07-02 20:57:00,
2013-07-02 16:58:00,79.2,70.2,29.90,South,173,4.0,9.0,74,0.00,,---,0.00,113.00,VWS V14.01,2013-07-02 20:58:00,
2013-07-02 16:59:00,79.1,70.1,29.90,SE,131,3.0,9.0,74,0.00,,---,0.00,113.00,VWS V14.01,2013-07-02 20:59:00,
2013-07-02 17:00:00,78.9,69.9,29.90,SSE,165,0.0,9.0,74,0.00,,---,0.00,105.00,VWS V14.01,2013-07-02 21:00:00,
2013-07-02 17:01:00,78.8,70.2,29.90,ESE,118,2.0,3.0,75,0.00,,---,0.00,100.00,VWS V14.01,2013-07-02 21:01:00,
2013-07-02 17:02:00,78.6,69.6,29.90,ESE,123,0.0,3.0,74,0.00,,---,0.00,98.00,VWS V14.01,2013-07-02 21:02:00,
2013-07-02 17:03:00,78.5,69.9,29.90,ESE,119,1.0,3.0,75,0.00,,---,0.00,100.00,VWS V14.01,2013-07-02 21:03:00,
2013-07-02 17:04:00,78.4,69.8,29.90,SE,144,1.0,6.0,75,0.00,,---,0.00,118.00,VWS V14.01,2013-07-02 21:04:00,
2013-07-02 17:05:00,78.3,69.7,29.90,SE,144,0.0,6.0,75,0.00,,---,0.00,121.00,VWS V14.01,2013-07-02 21:05:00,
2013-07-02 17:06:00,78.2,69.6,29.90,SE,144,0.0,0.0,75,0.00,,---,0.00,127.00,VWS V14.01,2013-07-02 21:06:00,
2013-07-02 17:07:00,78.2,70.0,29.90,SE,144,2.0,2.0,76,0.00,,---,0.00,522.00,VWS V14.01,2013-07-02 21:07:00,
2013-07-02 17:08:00,78.1,70.3,29.90,SE,145,0.0,2.0,77,0.00,,---,0.00,522.00,VWS V14.01,2013-07-02 21:08:00,
2013-07-02 17:09:00,78.1,70.7,29.90,SE,145,1.0,2.0,78,0.00,,---,0.00,522.00,VWS V14.01,2013-07-02 21:09:00,
2013-07-02 17:10:00,78.1,70.3,29.90,SSE,168,0.0,4.0,77,0.00,,---,0.00,545.00,VWS V14.01,2013-07-02 21:10:00,
2013-07-02 17:11:00,78.1,70.3,29.90,SSE,168,1.0,2.0,77,0.00,,---,0.00,545.00,VWS V14.01,2013-07-02 21:11:00,
2013-07-02 17:12:00,78.1,70.7,29.90,SSE,168,0.0,4.0,78,0.00,,---,0.00,545.00,VWS V14.01,2013-07-02 21:12:00,
2013-07-02 17:13:00,78.1,70.7,29.90,SSW,194,3.0,4.0,78,0.00,,---,0.00,214.00,VWS V14.01,2013-07-02 21:13:00,
2013-07-02 17:14:00,78.1,70.7,29.90,SSE,151,2.0,12.0,78,0.00,,---,0.00,214.00,VWS V14.01,2013-07-02 21:14:00,
2013-07-02 17:15:00,78.1,70.7,29.90,South,175,3.0,12.0,78,0.00,,---,0.00,214.00,VWS V14.01,2013-07-02 21:15:00,
2013-07-02 17:16:00,78.1,70.7,29.90,South,184,2.0,3.0,78,0.00,,---,0.00,214.00,VWS V14.01,2013-07-02 21:16:00,
2013-07-02 17:17:00,78.2,70.8,29.90,South,173,4.0,5.0,78,0.00,,---,0.00,214.00,VWS V14.01,2013-07-02 21:17:00,
2013-07-02 17:18:00,78.2,70.8,29.90,SSE,153,6.0,6.0,78,0.00,,---,0.00,552.00,VWS V14.01,2013-07-02 21:18:00,
2013-07-02 17:19:00,78.2,70.8,29.90,SSW,203,4.0,6.0,78,0.00,,---,0.00,540.00,VWS V14.01,2013-07-02 21:19:00,
2013-07-02 17:20:00,78.3,70.9,29.90,South,172,3.0,6.0,78,0.00,,---,0.00,534.00,VWS V14.01,2013-07-02 21:20:00,
2013-07-02 17:21:00,78.4,71.3,29.90,SSW,194,4.0,9.0,79,0.00,,---,0.00,526.00,VWS V14.01,2013-07-02 21:21:00,
2013-07-02 17:22:00,78.5,71.1,29.90,SSE,159,3.0,9.0,78,0.00,,---,0.00,519.00,VWS V14.01,2013-07-02 21:22:00,
2013-07-02 17:23:00,78.5,71.1,29.90,ESE,105,4.0,9.0,78,0.00,,---,0.00,531.00,VWS V14.01,2013-07-02 21:23:00,
2013-07-02 17:24:00,78.6,71.2,29.90,South,178,3.0,9.0,78,0.00,,---,0.00,536.00,VWS V14.01,2013-07-02 21:24:00,
2013-07-02 17:25:00,78.6,70.8,29.90,SSE,157,6.0,9.0,77,0.00,,---,0.00,501.00,VWS V14.01,2013-07-02 21:25:00,
2013-07-02 17:26:00,78.7,70.9,29.90,SSE,157,4.0,6.0,77,0.00,,---,0.00,527.00,VWS V14.01,2013-07-02 21:26:00,
2013-07-02 17:27:00,78.8,71.0,29.90,SSE,150,6.0,6.0,77,0.00,,---,0.00,526.00,VWS V14.01,2013-07-02 21:27:00,
2013-07-02 17:28:00,78.8,71.0,29.89,South,174,0.0,6.0,77,0.00,,---,0.00,513.00,VWS V14.01,2013-07-02 21:28:00,
2013-07-02 17:29:00,78.9,71.1,29.89,SW,222,1.0,6.0,77,0.00,,---,0.00,492.00,VWS V14.01,2013-07-02 21:29:00,
2013-07-02 17:30:00,79.0,71.2,29.89,SW,222,0.0,6.0,77,0.00,,---,0.00,485.00,VWS V14.01,2013-07-02 21:30:00,
2013-07-02 17:31:00,79.1,71.3,29.89,SSW,199,2.0,4.0,77,0.00,,---,0.00,501.00,VWS V14.01,2013-07-02 21:31:00,
2013-07-02 17:32:00,79.1,71.7,29.89,South,180,4.0,4.0,78,0.00,,---,0.00,482.00,VWS V14.01,2013-07-02 21:32:00,
2013-07-02 17:33:00,79.2,71.4,29.89,SSE,155,5.0,5.0,77,0.00,,---,0.00,459.00,VWS V14.01,2013-07-02 21:33:00,
2013-07-02 17:34:00,79.3,71.5,29.89,SSE,165,3.0,5.0,77,0.00,,---,0.00,459.00,VWS V14.01,2013-07-02 21:34:00,
2013-07-02 17:35:00,79.3,71.5,29.89,SSE,165,2.0,5.0,77,0.00,,---,0.00,459.00,VWS V14.01,2013-07-02 21:35:00,
2013-07-02 17:36:00,79.4,71.6,29.89,SSW,211,5.0,7.0,77,0.00,,---,0.00,199.00,VWS V14.01,2013-07-02 21:36:00,
2013-07-02 17:37:00,79.5,71.3,29.89,South,182,4.0,7.0,76,0.00,,---,0.00,199.00,VWS V14.01,2013-07-02 21:37:00,
2013-07-02 17:38:00,79.5,71.3,29.89,South,170,0.0,7.0,76,0.00,,---,0.00,323.00,VWS V14.01,2013-07-02 21:38:00,
2013-07-02 17:39:00,79.6,71.4,29.89,South,174,1.0,7.0,76,0.00,,---,0.00,323.00,VWS V14.01,2013-07-02 21:39:00,
2013-07-02 17:40:00,79.6,71.8,29.89,South,174,0.0,7.0,77,0.00,,---,0.00,483.00,VWS V14.01,2013-07-02 21:40:00,
2013-07-02 17:41:00,79.6,71.8,29.89,South,174,0.0,1.0,77,0.00,,---,0.00,476.00,VWS V14.01,2013-07-02 21:41:00,
2013-07-02 17:42:00,79.8,72.3,29.89,South,174,2.0,3.0,78,0.00,,---,0.00,476.00,VWS V14.01,2013-07-02 21:42:00,
2013-07-02 17:43:00,79.8,71.9,29.89,South,174,0.0,3.0,77,0.00,,---,0.00,492.00,VWS V14.01,2013-07-02 21:43:00,
2013-07-02 17:44:00,79.9,72.1,29.89,SSW,196,4.0,5.0,77,0.00,,---,0.00,489.00,VWS V14.01,2013-07-02 21:44:00,
2013-07-02 17:45:00,79.9,71.7,29.89,South,188,3.0,5.0,76,0.00,,---,0.00,427.00,VWS V14.01,2013-07-02 21:45:00,
2013-07-02 17:46:00,80.0,71.8,29.89,South,177,3.0,5.0,76,0.00,,---,0.00,450.00,VWS V14.01,2013-07-02 21:46:00,
2013-07-02 17:47:00,80.0,71.4,29.89,South,175,3.0,5.0,75,0.00,,---,0.00,494.00,VWS V14.01,2013-07-02 21:47:00,
2013-07-02 17:48:00,80.1,71.5,29.89,SSE,159,3.0,6.0,75,0.00,,---,0.00,519.00,VWS V14.01,2013-07-02 21:48:00,
2013-07-02 17:49:00,80.1,71.5,29.89,SSW,199,0.0,6.0,75,0.00,,---,0.00,529.00,VWS V14.01,2013-07-02 21:49:00,
2013-07-02 17:50:00,80.2,71.6,29.89,South,187,4.0,7.0,75,0.00,,---,0.00,536.00,VWS V14.01,2013-07-02 21:50:00,
2013-07-02 17:51:00,80.3,71.7,29.89,ESE,117,4.0,5.0,75,0.00,,---,0.00,468.00,VWS V14.01,2013-07-02 21:51:00,
2013-07-02 17:52:00,80.3,71.3,29.89,SE,127,2.0,8.0,74,0.00,,---,0.00,468.00,VWS V14.01,2013-07-02 21:52:00,
2013-07-02 17:53:00,80.3,71.3,29.89,SSE,148,1.0,8.0,74,0.00,,---,0.00,392.00,VWS V14.01,2013-07-02 21:53:00,
2013-07-02 17:54:00,80.3,71.3,29.89,SSE,159,1.0,8.0,74,0.00,,---,0.00,397.00,VWS V14.01,2013-07-02 21:54:00,
2013-07-02 17:55:00,80.3,71.3,29.89,South,187,5.0,8.0,74,0.00,,---,0.00,403.00,VWS V14.01,2013-07-02 21:55:00,
2013-07-02 17:56:00,80.3,70.9,29.89,SSE,153,5.0,5.0,73,0.00,,---,0.00,462.00,VWS V14.01,2013-07-02 21:56:00,
2013-07-02 17:57:00,80.3,70.9,29.89,South,170,2.0,6.0,73,0.00,,---,0.00,461.00,VWS V14.01,2013-07-02 21:57:00,
2013-07-02 17:58:00,80.3,70.9,29.89,South,178,2.0,6.0,73,0.00,,---,0.00,461.00,VWS V14.01,2013-07-02 21:58:00,
2013-07-02 17:59:00,80.3,70.9,29.89,South,179,3.0,6.0,73,0.00,,---,0.00,461.00,VWS V14.01,2013-07-02 21:59:00,
2013-07-02 18:00:00,80.3,70.9,29.89,SSW,200,7.0,7.0,73,0.00,,---,0.00,476.00,VWS V14.01,2013-07-02 22:00:00,
2013-07-02 18:01:00,80.3,70.9,29.89,South,181,3.0,9.0,73,0.00,,---,0.00,468.00,VWS V14.01,2013-07-02 22:01:00,
2013-07-02 18:02:00,80.3,70.9,29.89,South,173,2.0,9.0,73,0.00,,---,0.00,462.00,VWS V14.01,2013-07-02 22:02:00,
2013-07-02 18:03:00,80.4,71.0,29.89,SSE,161,1.0,9.0,73,0.00,,---,0.00,404.00,VWS V14.01,2013-07-02 22:03:00,
2013-07-02 18:04:00,80.4,71.0,29.89,SSE,161,1.0,9.0,73,0.00,,---,0.00,362.00,VWS V14.01,2013-07-02 22:04:00,
2013-07-02 18:05:00,80.4,71.0,29.89,SSE,161,0.0,9.0,73,0.00,,---,0.00,362.00,VWS V14.01,2013-07-02 22:05:00,
2013-07-02 18:06:00,80.4,71.0,29.89,SE,130,2.0,4.0,73,0.00,,---,0.00,330.00,VWS V14.01,2013-07-02 22:06:00,
2013-07-02 18:07:00,80.4,70.6,29.89,SSE,168,1.0,4.0,72,0.00,,---,0.00,381.00,VWS V14.01,2013-07-02 22:07:00,
2013-07-02 18:08:00,80.5,71.1,29.89,South,185,4.0,5.0,73,0.00,,---,0.00,404.00,VWS V14.01,2013-07-02 22:08:00,
2013-07-02 18:09:00,80.5,71.1,29.89,SE,128,9.0,9.0,73,0.00,,---,0.00,401.00,VWS V14.01,2013-07-02 22:09:00,
2013-07-02 18:10:00,80.5,70.7,29.89,SSE,149,0.0,9.0,72,0.00,,---,0.00,399.00,VWS V14.01,2013-07-02 22:10:00,
2013-07-02 18:11:00,80.5,70.7,29.89,South,173,3.0,6.0,72,0.00,,---,0.00,406.00,VWS V14.01,2013-07-02 22:11:00,
2013-07-02 18:12:00,80.5,70.7,29.89,SSE,159,4.0,6.0,72,0.00,,---,0.00,424.00,VWS V14.01,2013-07-02 22:12:00,
2013-07-02 18:13:00,80.5,70.7,29.89,SSE,159,1.0,6.0,72,0.00,,---,0.00,403.00,VWS V14.01,2013-07-02 22:13:00,
2013-07-02 18:14:00,80.5,70.7,29.89,SSE,160,3.0,6.0,72,0.00,,---,0.00,417.00,VWS V14.01,2013-07-02 22:14:00,
2013-07-02 18:15:00,80.5,71.1,29.89,SSE,155,2.0,6.0,73,0.00,,---,0.00,443.00,VWS V14.01,2013-07-02 22:15:00,
2013-07-02 18:16:00,80.6,71.2,29.90,SSE,156,1.0,2.0,73,0.00,,---,0.00,441.00,VWS V14.01,2013-07-02 22:16:00,
2013-07-02 18:17:00,80.6,71.2,29.89,SSE,156,4.0,4.0,73,0.00,,---,0.00,427.00,VWS V14.01,2013-07-02 22:17:00,
2013-07-02 18:18:00,80.7,71.2,29.90,SSE,149,1.0,4.0,73,0.00,,---,0.00,401.00,VWS V14.01,2013-07-02 22:18:00,
2013-07-02 18:19:00,80.7,70.8,29.90,South,184,5.0,5.0,72,0.00,,---,0.00,387.00,VWS V14.01,2013-07-02 22:19:00,
2013-07-02 18:20:00,80.7,71.2,29.90,South,186,2.0,5.0,73,0.00,,---,0.00,380.00,VWS V14.01,2013-07-02 22:20:00,
2013-07-02 18:21:00,80.7,71.2,29.89,East,92,4.0,4.0,73,0.00,,---,0.00,353.00,VWS V14.01,2013-07-02 22:21:00,
2013-07-02 18:22:00,80.8,71.3,29.89,ESE,109,1.0,4.0,73,0.00,,---,0.00,353.00,VWS V14.01,2013-07-02 22:22:00,
2013-07-02 18:23:00,80.7,70.8,29.89,ESE,117,0.0,4.0,72,0.00,,---,0.00,346.00,VWS V14.01,2013-07-02 22:23:00,
2013-07-02 18:24:00,80.8,70.9,29.90,SE,134,4.0,4.0,72,0.00,,---,0.00,322.00,VWS V14.01,2013-07-02 22:24:00,
2013-07-02 18:25:00,80.8,70.9,29.89,ESE,116,2.0,6.0,72,0.00,,---,0.00,323.00,VWS V14.01,2013-07-02 22:25:00,
2013-07-02 18:26:00,80.8,70.9,29.89,South,181,1.0,4.0,72,0.00,,---,0.00,330.00,VWS V14.01,2013-07-02 22:26:00,
2013-07-02 18:27:00,80.8,70.9,29.89,ESE,122,3.0,4.0,72,0.00,,---,0.00,346.00,VWS V14.01,2013-07-02 22:27:00,
2013-07-02 18:28:00,80.8,70.9,29.89,South,180,4.0,5.0,72,0.00,,---,0.00,190.00,VWS V14.01,2013-07-02 22:28:00,
2013-07-02 18:29:00,80.7,70.8,29.89,SSE,152,5.0,5.0,72,0.00,,---,0.00,107.00,VWS V14.01,2013-07-02 22:29:00,
2013-07-02 18:30:00,80.7,70.8,29.89,South,171,4.0,6.0,72,0.00,,---,0.00,95.00,VWS V14.01,2013-07-02 22:30:00,
2013-07-02 18:31:00,80.7,70.8,29.89,South,173,0.0,5.0,72,0.00,,---,0.00,97.00,VWS V14.01,2013-07-02 22:31:00,
2013-07-02 18:32:00,80.6,70.8,29.90,South,173,1.0,5.0,72,0.00,,---,0.00,163.00,VWS V14.01,2013-07-02 22:32:00,
2013-07-02 18:33:00,80.6,70.8,29.90,South,174,2.0,5.0,72,0.00,,---,0.00,260.00,VWS V14.01,2013-07-02 22:33:00,
2013-07-02 18:34:00,80.6,70.8,29.89,South,175,4.0,6.0,72,0.00,,---,0.00,313.00,VWS V14.01,2013-07-02 22:34:00,
2013-07-02 18:35:00,80.5,70.7,29.89,South,176,3.0,6.0,72,0.00,,---,0.00,311.00,VWS V14.01,2013-07-02 22:35:00,
2013-07-02 18:36:00,80.5,71.1,29.89,SSW,195,5.0,5.0,73,0.00,,---,0.00,304.00,VWS V14.01,2013-07-02 22:36:00,
2013-07-02 18:37:00,80.5,71.1,29.89,SSE,157,0.0,5.0,73,0.00,,---,0.00,308.00,VWS V14.01,2013-07-02 22:37:00,
2013-07-02 18:38:00,80.5,71.1,29.89,SSE,157,2.0,5.0,73,0.00,,---,0.00,306.00,VWS V14.01,2013-07-02 22:38:00,
2013-07-02 18:39:00,80.5,71.5,29.89,SSE,166,5.0,5.0,74,0.00,,---,0.00,301.00,VWS V14.01,2013-07-02 22:39:00,
2013-07-02 18:40:00,80.5,71.1,29.89,South,191,4.0,6.0,73,0.00,,---,0.00,295.00,VWS V14.01,2013-07-02 22:40:00,
2013-07-02 18:41:00,80.5,71.1,29.89,South,171,3.0,4.0,73,0.00,,---,0.00,290.00,VWS V14.01,2013-07-02 22:41:00,
2013-07-02 18:42:00,80.5,71.1,29.90,South,169,1.0,4.0,73,0.00,,---,0.00,285.00,VWS V14.01,2013-07-02 22:42:00,
2013-07-02 18:43:00,80.5,71.1,29.90,South,169,1.0,4.0,73,0.00,,---,0.00,288.00,VWS V14.01,2013-07-02 22:43:00,
2013-07-02 18:44:00,80.5,71.1,29.90,South,185,3.0,4.0,73,0.00,,---,0.00,283.00,VWS V14.01,2013-07-02 22:44:00,
2013-07-02 18:45:00,80.4,71.0,29.90,South,173,2.0,4.0,73,0.00,,---,0.00,287.00,VWS V14.01,2013-07-02 22:45:00,
2013-07-02 18:46:00,80.5,71.1,29.90,SE,144,1.0,5.0,73,0.00,,---,0.00,279.00,VWS V14.01,2013-07-02 22:46:00,
2013-07-02 18:47:00,80.4,71.4,29.90,SSE,149,2.0,5.0,74,0.00,,---,0.00,276.00,VWS V14.01,2013-07-02 22:47:00,
2013-07-02 18:48:00,80.4,71.4,29.90,South,173,3.0,5.0,74,0.00,,---,0.00,267.00,VWS V14.01,2013-07-02 22:48:00,
2013-07-02 18:49:00,80.5,71.5,29.90,South,173,0.0,5.0,74,0.00,,---,0.00,269.00,VWS V14.01,2013-07-02 22:49:00,
2013-07-02 18:50:00,80.5,71.5,29.90,South,174,4.0,5.0,74,0.00,,---,0.00,262.00,VWS V14.01,2013-07-02 22:50:00,
2013-07-02 18:51:00,80.5,71.5,29.90,South,174,0.0,4.0,74,0.00,,---,0.00,257.00,VWS V14.01,2013-07-02 22:51:00,
2013-07-02 18:52:00,80.5,71.5,29.90,South,188,5.0,6.0,74,0.00,,---,0.00,248.00,VWS V14.01,2013-07-02 22:52:00,
2013-07-02 18:53:00,80.5,71.1,29.90,South,179,3.0,6.0,73,0.00,,---,0.00,246.00,VWS V14.01,2013-07-02 22:53:00,
2013-07-02 18:54:00,80.5,71.1,29.90,SSW,209,3.0,6.0,73,0.00,,---,0.00,246.00,VWS V14.01,2013-07-02 22:54:00,
2013-07-02 18:55:00,80.5,71.1,29.90,SSW,210,6.0,6.0,73,0.00,,---,0.00,246.00,VWS V14.01,2013-07-02 22:55:00,
2013-07-02 18:56:00,80.5,70.7,29.90,South,185,3.0,6.0,72,0.00,,---,0.00,234.00,VWS V14.01,2013-07-02 22:56:00,
2013-07-02 18:57:00,80.5,70.7,29.90,SSW,199,5.0,9.0,72,0.00,,---,0.00,234.00,VWS V14.01,2013-07-02 22:57:00,
2013-07-02 18:58:00,80.4,70.6,29.90,SSW,195,4.0,9.0,72,0.00,,---,0.00,204.00,VWS V14.01,2013-07-02 22:58:00,
2013-07-02 18:59:00,80.4,70.6,29.90,South,173,3.0,9.0,72,0.00,,---,0.00,197.00,VWS V14.01,2013-07-02 22:59:00,
2013-07-02 19:00:00,80.4,70.6,29.90,SW,216,5.0,9.0,72,0.00,,---,0.00,167.00,VWS V14.01,2013-07-02 23:00:00,
2013-07-02 19:01:00,80.4,71.0,29.90,SSW,195,2.0,5.0,73,0.00,,---,0.00,200.00,VWS V14.01,2013-07-02 23:01:00,
2013-07-02 19:02:00,80.4,71.0,29.91,SSW,192,1.0,5.0,73,0.00,,---,0.00,195.00,VWS V14.01,2013-07-02 23:02:00,
2013-07-02 19:03:00,80.4,71.0,29.91,SSE,149,4.0,5.0,73,0.00,,---,0.00,91.00,VWS V14.01,2013-07-02 23:03:00,
2013-07-02 19:04:00,80.3,70.5,29.90,SSE,150,1.0,5.0,72,0.00,,---,0.00,113.00,VWS V14.01,2013-07-02 23:04:00,
2013-07-02 19:05:00,80.3,70.9,29.91,SSE,152,1.0,5.0,73,0.00,,---,0.00,151.00,VWS V14.01,2013-07-02 23:05:00,
2013-07-02 19:06:00,80.3,70.9,29.91,South,177,3.0,3.0,73,0.00,,---,0.00,178.00,VWS V14.01,2013-07-02 23:06:00,
2013-07-02 19:07:00,80.2,70.4,29.91,SSE,156,3.0,5.0,72,0.00,,---,0.00,181.00,VWS V14.01,2013-07-02 23:07:00,
2013-07-02 19:08:00,80.2,70.8,29.91,South,175,2.0,5.0,73,0.00,,---,0.00,186.00,VWS V14.01,2013-07-02 23:08:00,
2013-07-02 19:09:00,80.2,70.8,29.91,South,175,0.0,5.0,73,0.00,,---,0.00,185.00,VWS V14.01,2013-07-02 23:09:00,
2013-07-02 19:10:00,80.2,70.8,29.91,South,185,3.0,5.0,73,0.00,,---,0.00,186.00,VWS V14.01,2013-07-02 23:10:00,
2013-07-02 19:11:00,80.1,70.7,29.91,SSW,192,1.0,4.0,73,0.00,,---,0.00,183.00,VWS V14.01,2013-07-02 23:11:00,
2013-07-02 19:12:00,80.1,70.7,29.91,SSW,192,0.0,4.0,73,0.00,,---,0.00,183.00,VWS V14.01,2013-07-02 23:12:00,
2013-07-02 19:13:00,80.1,70.7,29.91,SSW,192,2.0,4.0,73,0.00,,---,0.00,179.00,VWS V14.01,2013-07-02 23:13:00,
2013-07-02 19:14:00,80.1,70.7,29.91,SSW,192,1.0,4.0,73,0.00,,---,0.00,178.00,VWS V14.01,2013-07-02 23:14:00,
2013-07-02 19:15:00,80.1,70.7,29.91,SSW,192,1.0,4.0,73,0.00,,---,0.00,174.00,VWS V14.01,2013-07-02 23:15:00,
2013-07-02 19:16:00,80.0,70.6,29.91,SSE,166,0.0,5.0,73,0.00,,---,0.00,172.00,VWS V14.01,2013-07-02 23:16:00,
2013-07-02 19:17:00,80.0,70.6,29.91,South,182,6.0,7.0,73,0.00,,---,0.00,169.00,VWS V14.01,2013-07-02 23:17:00,
2013-07-02 19:18:00,80.0,70.6,29.90,South,190,2.0,7.0,73,0.00,,---,0.00,167.00,VWS V14.01,2013-07-02 23:18:00,
2013-07-02 19:19:00,80.0,70.6,29.90,South,178,0.0,7.0,73,0.00,,---,0.00,165.00,VWS V14.01,2013-07-02 23:19:00,
2013-07-02 19:20:00,80.0,70.6,29.90,South,178,2.0,7.0,73,0.00,,---,0.00,160.00,VWS V14.01,2013-07-02 23:20:00,
2013-07-02 19:21:00,80.0,70.6,29.91,South,178,2.0,2.0,73,0.00,,---,0.00,158.00,VWS V14.01,2013-07-02 23:21:00,
2013-07-02 19:22:00,80.0,70.6,29.91,South,178,1.0,3.0,73,0.00,,---,0.00,155.00,VWS V14.01,2013-07-02 23:22:00,
2013-07-02 19:23:00,79.9,70.5,29.91,SSW,202,3.0,5.0,73,0.00,,---,0.00,151.00,VWS V14.01,2013-07-02 23:23:00,
2013-07-02 19:24:00,79.9,70.5,29.91,SSW,202,1.0,5.0,73,0.00,,---,0.00,149.00,VWS V14.01,2013-07-02 23:24:00,
2013-07-02 19:25:00,79.9,70.5,29.91,SSW,202,1.0,5.0,73,0.00,,---,0.00,148.00,VWS V14.01,2013-07-02 23:25:00,
2013-07-02 19:26:00,79.9,70.9,29.91,SSW,202,1.0,2.0,74,0.00,,---,0.00,144.00,VWS V14.01,2013-07-02 23:26:00,
2013-07-02 19:27:00,79.9,70.9,29.91,SSW,202,0.0,2.0,74,0.00,,---,0.00,139.00,VWS V14.01,2013-07-02 23:27:00,
2013-07-02 19:28:00,79.9,70.9,29.91,SSW,202,2.0,2.0,74,0.00,,---,0.00,137.00,VWS V14.01,2013-07-02 23:28:00,
2013-07-02 19:29:00,79.9,70.9,29.91,SSW,202,1.0,3.0,74,0.00,,---,0.00,134.00,VWS V14.01,2013-07-02 23:29:00,
2013-07-02 19:30:00,79.9,70.9,29.91,SSW,202,0.0,3.0,74,0.00,,---,0.00,130.00,VWS V14.01,2013-07-02 23:30:00,
2013-07-02 19:31:00,79.9,70.9,29.91,SSW,202,0.0,1.0,74,0.00,,---,0.00,127.00,VWS V14.01,2013-07-02 23:31:00,
2013-07-02 19:32:00,79.8,70.8,29.91,SSW,202,0.0,1.0,74,0.00,,---,0.00,121.00,VWS V14.01,2013-07-02 23:32:00,
2013-07-02 19:33:00,79.8,70.8,29.91,SSW,202,1.0,1.0,74,0.00,,---,0.00,118.00,VWS V14.01,2013-07-02 23:33:00,
2013-07-02 19:34:00,79.8,70.8,29.91,SSW,202,0.0,1.0,74,0.00,,---,0.00,114.00,VWS V14.01,2013-07-02 23:34:00,
2013-07-02 19:35:00,79.8,70.8,29.91,SSW,202,0.0,1.0,74,0.00,,---,0.00,111.00,VWS V14.01,2013-07-02 23:35:00,
2013-07-02 19:36:00,79.8,70.8,29.91,SSW,202,0.0,0.0,74,0.00,,---,0.00,109.00,VWS V14.01,2013-07-02 23:36:00,
2013-07-02 19:37:00,79.9,70.9,29.91,SSW,202,0.0,0.0,74,0.00,,---,0.00,105.00,VWS V14.01,2013-07-02 23:37:00,
2013-07-02 19:38:00,79.9,71.3,29.91,SSW,202,0.0,0.0,75,0.00,,---,0.00,100.00,VWS V14.01,2013-07-02 23:38:00,
2013-07-02 19:39:00,79.9,70.9,29.91,SSW,202,0.0,0.0,74,0.00,,---,0.00,97.00,VWS V14.01,2013-07-02 23:39:00,
2013-07-02 19:40:00,79.9,70.9,29.91,SSW,202,0.0,0.0,74,0.00,,---,0.00,95.00,VWS V14.01,2013-07-02 23:40:00,
2013-07-02 19:41:00,79.9,71.3,29.91,SSW,202,0.0,0.0,75,0.00,,---,0.00,91.00,VWS V14.01,2013-07-02 23:41:00,
2013-07-02 19:42:00,79.9,71.3,29.91,SSW,202,0.0,0.0,75,0.00,,---,0.00,88.00,VWS V14.01,2013-07-02 23:42:00,
2013-07-02 19:43:00,79.9,71.3,29.91,SSW,202,0.0,0.0,75,0.00,,---,0.00,86.00,VWS V14.01,2013-07-02 23:43:00,
2013-07-02 19:44:00,79.9,71.3,29.91,SSW,202,0.0,0.0,75,0.00,,---,0.00,81.00,VWS V14.01,2013-07-02 23:44:00,
2013-07-02 19:45:00,79.9,71.3,29.91,SSW,202,0.0,1.0,75,0.00,,---,0.00,79.00,VWS V14.01,2013-07-02 23:45:00,
2013-07-02 19:46:00,79.9,71.3,29.91,SSW,202,0.0,0.0,75,0.00,,---,0.00,77.00,VWS V14.01,2013-07-02 23:46:00,
2013-07-02 19:47:00,79.9,71.3,29.91,SSW,202,0.0,0.0,75,0.00,,---,0.00,74.00,VWS V14.01,2013-07-02 23:47:00,
2013-07-02 19:48:00,80.0,71.4,29.91,SSW,202,0.0,0.0,75,0.00,,---,0.00,72.00,VWS V14.01,2013-07-02 23:48:00,
2013-07-02 19:49:00,80.0,71.4,29.91,SSW,202,0.0,0.0,75,0.00,,---,0.00,70.00,VWS V14.01,2013-07-02 23:49:00,
2013-07-02 19:50:00,80.0,71.4,29.91,SSW,202,0.0,0.0,75,0.00,,---,0.00,69.00,VWS V14.01,2013-07-02 23:50:00,
2013-07-02 19:51:00,80.0,71.4,29.91,SSW,202,0.0,1.0,75,0.00,,---,0.00,63.00,VWS V14.01,2013-07-02 23:51:00,
2013-07-02 19:52:00,80.0,71.4,29.91,SSW,202,0.0,1.0,75,0.00,,---,0.00,62.00,VWS V14.01,2013-07-02 23:52:00,
2013-07-02 19:53:00,80.0,71.4,29.91,SSW,202,0.0,1.0,75,0.00,,---,0.00,60.00,VWS V14.01,2013-07-02 23:53:00,
2013-07-02 19:54:00,80.0,71.4,29.91,SSW,202,0.0,1.0,75,0.00,,---,0.00,56.00,VWS V14.01,2013-07-02 23:54:00,
2013-07-02 19:55:00,80.0,71.4,29.91,SSW,202,0.0,1.0,75,0.00,,---,0.00,54.00,VWS V14.01,2013-07-02 23:55:00,
2013-07-02 19:56:00,80.0,71.4,29.91,SSW,202,0.0,0.0,75,0.00,,---,0.00,51.00,VWS V14.01,2013-07-02 23:56:00,
2013-07-02 19:57:00,80.0,71.4,29.91,SSW,202,0.0,0.0,75,0.00,,---,0.00,51.00,VWS V14.01,2013-07-02 23:57:00,
2013-07-02 19:58:00,80.0,71.4,29.91,SSW,202,0.0,0.0,75,0.00,,---,0.00,49.00,VWS V14.01,2013-07-02 23:58:00,
2013-07-02 19:59:00,80.0,71.4,29.91,SSW,202,0.0,0.0,75,0.00,,---,0.00,47.00,VWS V14.01,2013-07-02 23:59:00,
2013-07-02 20:00:00,79.9,71.3,29.91,SSW,202,0.0,1.0,75,0.00,,---,0.00,46.00,VWS V14.01,2013-07-03 00:00:00,
2013-07-02 20:01:00,79.9,71.3,29.91,SSW,202,0.0,0.0,75,0.00,,---,0.00,44.00,VWS V14.01,2013-07-03 00:01:00,
2013-07-02 20:02:00,79.9,71.3,29.91,SSW,202,0.0,0.0,75,0.00,,---,0.00,39.00,VWS V14.01,2013-07-03 00:02:00,
2013-07-02 20:03:00,79.9,71.3,29.91,SSW,202,0.0,0.0,75,0.00,,---,0.00,37.00,VWS V14.01,2013-07-03 00:03:00,
2013-07-02 20:04:00,79.9,71.3,29.91,SSW,202,0.0,0.0,75,0.00,,---,0.00,35.00,VWS V14.01,2013-07-03 00:04:00,
2013-07-02 20:05:00,79.9,71.3,29.91,SSW,202,0.0,0.0,75,0.00,,---,0.00,35.00,VWS V14.01,2013-07-03 00:05:00,
2013-07-02 20:06:00,79.9,71.3,29.91,SSW,202,0.0,0.0,75,0.00,,---,0.00,33.00,VWS V14.01,2013-07-03 00:06:00,
2013-07-02 20:07:00,79.9,71.3,29.91,SSW,202,0.0,0.0,75,0.00,,---,0.00,30.00,VWS V14.01,2013-07-03 00:07:00,
2013-07-02 20:08:00,79.8,71.2,29.92,SSW,202,0.0,0.0,75,0.00,,---,0.00,28.00,VWS V14.01,2013-07-03 00:08:00,
2013-07-02 20:09:00,79.8,71.2,29.92,SSW,202,0.0,0.0,75,0.00,,---,0.00,26.00,VWS V14.01,2013-07-03 00:09:00,
2013-07-02 20:10:00,79.8,71.2,29.92,SSW,202,0.0,0.0,75,0.00,,---,0.00,26.00,VWS V14.01,2013-07-03 00:10:00,
2013-07-02 20:11:00,79.8,71.2,29.92,SSW,202,0.0,0.0,75,0.00,,---,0.00,25.00,VWS V14.01,2013-07-03 00:11:00,
2013-07-02 20:12:00,79.8,71.2,29.92,SSW,202,1.0,2.0,75,0.00,,---,0.00,23.00,VWS V14.01,2013-07-03 00:12:00,
2013-07-02 20:13:00,79.7,71.1,29.92,SSW,202,0.0,2.0,75,0.00,,---,0.00,21.00,VWS V14.01,2013-07-03 00:13:00,
2013-07-02 20:14:00,79.7,71.1,29.92,SSW,202,0.0,2.0,75,0.00,,---,0.00,19.00,VWS V14.01,2013-07-03 00:14:00,
2013-07-02 20:15:00,79.6,71.0,29.92,SSW,202,0.0,2.0,75,0.00,,---,0.00,18.00,VWS V14.01,2013-07-03 00:15:00,
2013-07-02 20:16:00,79.6,71.0,29.91,SSW,202,0.0,0.0,75,0.00,,---,0.00,16.00,VWS V14.01,2013-07-03 00:16:00,
2013-07-02 20:17:00,79.6,71.0,29.92,SSW,202,0.0,1.0,75,0.00,,---,0.00,14.00,VWS V14.01,2013-07-03 00:17:00,
2013-07-02 20:18:00,79.5,71.3,29.92,SSW,202,0.0,1.0,76,0.00,,---,0.00,12.00,VWS V14.01,2013-07-03 00:18:00,
2013-07-02 20:19:00,79.5,70.9,29.92,SSW,202,0.0,1.0,75,0.00,,---,0.00,11.00,VWS V14.01,2013-07-03 00:19:00,
2013-07-02 20:20:00,79.4,70.8,29.92,SSW,202,0.0,1.0,75,0.00,,---,0.00,9.00,VWS V14.01,2013-07-03 00:20:00,
2013-07-02 20:21:00,79.3,71.1,29.92,SSW,202,0.0,0.0,76,0.00,,---,0.00,9.00,VWS V14.01,2013-07-03 00:21:00,
2013-07-02 20:22:00,79.3,71.1,29.92,SSW,202,0.0,0.0,76,0.00,,---,0.00,9.00,VWS V14.01,2013-07-03 00:22:00,
2013-07-02 20:23:00,79.3,71.1,29.92,SSW,202,0.0,1.0,76,0.00,,---,0.00,9.00,VWS V14.01,2013-07-03 00:23:00,
2013-07-02 20:24:00,79.2,71.0,29.92,SSW,202,0.0,1.0,76,0.00,,---,0.00,7.00,VWS V14.01,2013-07-03 00:24:00,
2013-07-02 20:25:00,79.2,71.0,29.92,SSW,202,0.0,1.0,76,0.00,,---,0.00,7.00,VWS V14.01,2013-07-03 00:25:00,
2013-07-02 20:26:00,79.1,70.9,29.92,SSW,202,0.0,0.0,76,0.00,,---,0.00,5.00,VWS V14.01,2013-07-03 00:26:00,
2013-07-02 20:27:00,79.0,70.8,29.92,SSW,202,0.0,0.0,76,0.00,,---,0.00,5.00,VWS V14.01,2013-07-03 00:27:00,
2013-07-02 20:28:00,79.0,70.8,29.92,SSW,202,0.0,0.0,76,0.00,,---,0.00,5.00,VWS V14.01,2013-07-03 00:28:00,
2013-07-02 20:29:00,78.9,70.7,29.92,SSW,202,0.0,0.0,76,0.00,,---,0.00,5.00,VWS V14.01,2013-07-03 00:29:00,
2013-07-02 20:30:00,78.8,70.6,29.92,SSW,202,0.0,0.0,76,0.00,,---,0.00,5.00,VWS V14.01,2013-07-03 00:30:00,
2013-07-02 20:31:00,78.7,70.5,29.92,SSW,202,0.0,0.0,76,0.00,,---,0.00,0.00,VWS V14.01,2013-07-03 00:31:00,
2013-07-02 20:32:00,78.7,70.5,29.92,SSW,202,0.0,0.0,76,0.00,,---,0.00,0.00,VWS V14.01,2013-07-03 00:32:00,
2013-07-02 20:33:00,78.6,70.4,29.92,SSW,202,0.0,0.0,76,0.00,,---,0.00,0.00,VWS V14.01,2013-07-03 00:33:00,
2013-07-02 20:34:00,78.6,70.8,29.92,SSW,202,0.0,0.0,77,0.00,,---,0.00,0.00,VWS V14.01,2013-07-03 00:34:00,
2013-07-02 20:35:00,78.5,70.7,29.92,SSW,202,0.0,0.0,77,0.00,,---,0.00,0.00,VWS V14.01,2013-07-03 00:35:00,
2013-07-02 20:36:00,78.4,70.6,29.92,SSW,202,0.0,0.0,77,0.00,,---,0.00,0.00,VWS V14.01,2013-07-03 00:36:00,
2013-07-02 20:37:00,78.3,70.5,29.92,SSW,202,0.0,1.0,77,0.00,,---,0.00,0.00,VWS V14.01,2013-07-03 00:37:00,
2013-07-02 20:38:00,78.2,70.4,29.92,SSW,202,0.0,1.0,77,0.00,,---,0.00,0.00,VWS V14.01,2013-07-03 00:38:00,
2013-07-02 20:39:00,78.2,70.4,29.92,SSW,202,0.0,1.0,77,0.00,,---,0.00,0.00,VWS V14.01,2013-07-03 00:39:00,
2013-07-02 20:40:00,78.1,70.7,29.92,SSW,202,0.0,1.0,78,0.00,,---,0.00,0.00,VWS V14.01,2013-07-03 00:40:00,
2013-07-02 20:41:00,78.0,70.6,29.92,SSW,202,0.0,0.0,78,0.00,,---,0.00,0.00,VWS V14.01,2013-07-03 00:41:00,
2013-07-02 20:42:00,77.9,70.5,29.92,SSW,202,0.0,0.0,78,0.00,,---,0.00,0.00,VWS V14.01,2013-07-03 00:42:00,
2013-07-02 20:43:00,77.8,70.4,29.92,SSW,202,0.0,0.0,78,0.00,,---,0.00,0.00,VWS V14.01,2013-07-03 00:43:00,
2013-07-02 20:44:00,77.8,70.8,29.92,SSW,202,0.0,0.0,79,0.00,,---,0.00,0.00,VWS V14.01,2013-07-03 00:44:00,
2013-07-02 20:45:00,77.7,70.7,29.92,SSW,202,0.0,0.0,79,0.00,,---,0.00,0.00,VWS V14.01,2013-07-03 00:45:00,
2013-07-02 20:46:00,77.6,70.6,29.92,SSW,202,0.0,0.0,79,0.00,,---,0.00,0.00,VWS V14.01,2013-07-03 00:46:00,
2013-07-02 20:47:00,77.5,70.5,29.92,SSW,202,0.0,0.0,79,0.00,,---,0.00,0.00,VWS V14.01,2013-07-03 00:47:00,
2013-07-02 20:48:00,77.3,70.3,29.92,SSW,202,0.0,0.0,79,0.00,,---,0.00,0.00,VWS V14.01,2013-07-03 00:48:00,
2013-07-02 20:49:00,77.3,70.3,29.92,SSW,202,0.0,0.0,79,0.00,,---,0.00,0.00,VWS V14.01,2013-07-03 00:49:00,
2013-07-02 20:50:00,77.1,70.1,29.92,SSW,202,0.0,1.0,79,0.00,,---,0.00,0.00,VWS V14.01,2013-07-03 00:50:00,
2013-07-02 20:51:00,77.0,70.0,29.93,SSW,202,0.0,0.0,79,0.00,,---,0.00,0.00,VWS V14.01,2013-07-03 00:51:00,
2013-07-02 20:52:00,76.9,70.3,29.92,SSW,202,0.0,0.0,80,0.00,,---,0.00,0.00,VWS V14.01,2013-07-03 00:52:00,
2013-07-02 20:53:00,76.7,70.1,29.92,SSW,202,0.0,0.0,80,0.00,,---,0.00,0.00,VWS V14.01,2013-07-03 00:53:00,
2013-07-02 20:54:00,76.6,70.0,29.92,SSW,202,0.0,0.0,80,0.00,,---,0.00,0.00,VWS V14.01,2013-07-03 00:54:00,
2013-07-02 20:55:00,76.5,70.2,29.92,SSW,202,0.0,0.0,81,0.00,,---,0.00,0.00,VWS V14.01,2013-07-03 00:55:00,
2013-07-02 20:56:00,76.4,70.1,29.92,SSW,202,0.0,0.0,81,0.00,,---,0.00,0.00,VWS V14.01,2013-07-03 00:56:00,
2013-07-02 20:57:00,76.3,70.1,29.93,SSW,202,0.0,0.0,81,0.00,,---,0.00,0.00,VWS V14.01,2013-07-03 00:57:00,
2013-07-02 20:58:00,76.2,69.9,29.93,SSW,202,0.0,0.0,81,0.00,,---,0.00,0.00,VWS V14.01,2013-07-03 00:58:00,
2013-07-02 20:59:00,76.1,69.8,29.93,SSW,202,0.0,0.0,81,0.00,,---,0.00,0.00,VWS V14.01,2013-07-03 00:59:00,
2013-07-02 21:00:00,76.0,70.1,29.93,SSW,202,0.0,0.0,82,0.00,,---,0.00,0.00,VWS V14.01,2013-07-03 01:00:00,
2013-07-02 21:01:00,75.9,70.0,29.92,SSW,202,0.0,0.0,82,0.00,,---,0.00,0.00,VWS V14.01,2013-07-03 01:01:00,
2013-07-02 21:02:00,75.8,69.9,29.92,SSW,202,0.0,1.0,82,0.00,,---,0.00,0.00,VWS V14.01,2013-07-03 01:02:00,
2013-07-02 21:03:00,75.6,69.7,29.92,SSW,202,0.0,1.0,82,0.00,,---,0.00,0.00,VWS V14.01,2013-07-03 01:03:00,
2013-07-02 21:04:00,75.5,69.6,29.92,SSW,202,0.0,1.0,82,0.00,,---,0.00,0.00,VWS V14.01,2013-07-03 01:04:00,
2013-07-02 21:05:00,75.4,69.9,29.92,SSW,202,0.0,1.0,83,0.00,,---,0.00,0.00,VWS V14.01,2013-07-03 01:05:00,
2013-07-02 21:06:00,75.4,69.9,29.92,SSW,202,0.0,0.0,83,0.00,,---,0.00,0.00,VWS V14.01,2013-07-03 01:06:00,
2013-07-02 21:07:00,75.3,69.8,29.92,SSW,202,0.0,0.0,83,0.00,,---,0.00,0.00,VWS V14.01,2013-07-03 01:07:00,
2013-07-02 21:08:00,75.2,69.7,29.92,SSW,202,0.0,0.0,83,0.00,,---,0.00,0.00,VWS V14.01,2013-07-03 01:08:00,
2013-07-02 21:09:00,75.1,69.6,29.92,SSW,202,0.0,0.0,83,0.00,,---,0.00,0.00,VWS V14.01,2013-07-03 01:09:00,
2013-07-02 21:10:00,75.0,69.8,29.92,SSW,202,0.0,0.0,84,0.00,,---,0.00,0.00,VWS V14.01,2013-07-03 01:10:00,
2013-07-02 21:11:00,74.9,69.7,29.92,SSW,202,0.0,0.0,84,0.00,,---,0.00,0.00,VWS V14.01,2013-07-03 01:11:00,
2013-07-02 21:12:00,74.8,69.7,29.93,SSW,202,0.0,0.0,84,0.00,,---,0.00,0.00,VWS V14.01,2013-07-03 01:12:00,
2013-07-02 21:13:00,74.8,69.7,29.92,SSW,202,0.0,0.0,84,0.00,,---,0.00,0.00,VWS V14.01,2013-07-03 01:13:00,
2013-07-02 21:14:00,74.7,69.6,29.93,SSW,202,0.0,0.0,84,0.00,,---,0.00,0.00,VWS V14.01,2013-07-03 01:14:00,
2013-07-02 21:15:00,74.6,69.4,29.93,SSW,202,0.0,0.0,84,0.00,,---,0.00,0.00,VWS V14.01,2013-07-03 01:15:00,
2013-07-02 21:16:00,74.6,69.4,29.93,SSW,202,0.0,0.0,84,0.00,,---,0.00,0.00,VWS V14.01,2013-07-03 01:16:00,
2013-07-02 21:17:00,74.5,69.3,29.93,SSW,202,0.0,0.0,84,0.00,,---,0.00,0.00,VWS V14.01,2013-07-03 01:17:00,
2013-07-02 21:18:00,74.4,69.3,29.93,SSW,202,0.0,0.0,84,0.00,,---,0.00,0.00,VWS V14.01,2013-07-03 01:18:00,
2013-07-02 21:19:00,74.4,69.6,29.93,SSW,202,0.0,0.0,85,0.00,,---,0.00,0.00,VWS V14.01,2013-07-03 01:19:00,
2013-07-02 21:20:00,74.3,69.5,29.93,SSW,202,0.0,0.0,85,0.00,,---,0.00,0.00,VWS V14.01,2013-07-03 01:20:00,
2013-07-02 21:21:00,74.2,69.4,29.93,SSW,202,0.0,0.0,85,0.00,,---,0.00,0.00,VWS V14.01,2013-07-03 01:21:00,
2013-07-02 21:22:00,74.2,69.4,29.93,SSW,202,0.0,0.0,85,0.00,,---,0.00,0.00,VWS V14.01,2013-07-03 01:22:00,
2013-07-02 21:23:00,74.1,69.3,29.93,SSW,202,0.0,0.0,85,0.00,,---,0.00,0.00,VWS V14.01,2013-07-03 01:23:00,
2013-07-02 21:24:00,74.0,69.2,29.93,SSW,202,0.0,0.0,85,0.00,,---,0.00,0.00,VWS V14.01,2013-07-03 01:24:00,
2013-07-02 21:25:00,74.0,69.2,29.93,SSW,202,0.0,0.0,85,0.00,,---,0.00,0.00,VWS V14.01,2013-07-03 01:25:00,
2013-07-02 21:26:00,73.9,69.4,29.93,SSW,202,0.0,0.0,86,0.00,,---,0.00,0.00,VWS V14.01,2013-07-03 01:26:00,
2013-07-02 21:27:00,73.8,69.3,29.93,SSW,202,0.0,1.0,86,0.00,,---,0.00,0.00,VWS V14.01,2013-07-03 01:27:00,
2013-07-02 21:28:00,73.7,69.3,29.93,SSW,202,0.0,1.0,86,0.00,,---,0.00,0.00,VWS V14.01,2013-07-03 01:28:00,
2013-07-02 21:29:00,73.7,69.3,29.93,SSW,202,0.0,1.0,86,0.00,,---,0.00,0.00,VWS V14.01,2013-07-03 01:29:00,
2013-07-02 21:30:00,73.6,69.2,29.93,SSW,202,0.0,1.0,86,0.00,,---,0.00,0.00,VWS V14.01,2013-07-03 01:30:00,
2013-07-02 21:31:00,73.5,69.1,29.93,SSW,202,0.0,1.0,86,0.00,,---,0.00,0.00,VWS V14.01,2013-07-03 01:31:00,
2013-07-02 21:32:00,73.5,69.1,29.93,SSW,202,0.0,1.0,86,0.00,,---,0.00,0.00,VWS V14.01,2013-07-03 01:32:00,
2013-07-02 21:33:00,73.4,69.0,29.93,SSW,202,0.0,1.0,86,0.00,,---,0.00,0.00,VWS V14.01,2013-07-03 01:33:00,
2013-07-02 21:34:00,73.4,69.0,29.93,SSW,202,0.0,1.0,86,0.00,,---,0.00,0.00,VWS V14.01,2013-07-03 01:34:00,
2013-07-02 21:35:00,73.3,69.2,29.93,SSW,202,0.0,1.0,87,0.00,,---,0.00,0.00,VWS V14.01,2013-07-03 01:35:00,
2013-07-02 21:36:00,73.2,69.1,29.93,SSW,202,0.0,1.0,87,0.00,,---,0.00,0.00,VWS V14.01,2013-07-03 01:36:00,
2013-07-02 21:37:00,73.1,69.0,29.93,SSW,202,0.0,1.0,87,0.00,,---,0.00,0.00,VWS V14.01,2013-07-03 01:37:00,
2013-07-02 21:38:00,73.1,69.0,29.93,SSW,202,0.0,1.0,87,0.00,,---,0.00,0.00,VWS V14.01,2013-07-03 01:38:00,
2013-07-02 21:39:00,73.0,68.9,29.93,SSW,202,0.0,1.0,87,0.00,,---,0.00,0.00,VWS V14.01,2013-07-03 01:39:00,
2013-07-02 21:40:00,73.0,68.9,29.93,SSW,202,0.0,1.0,87,0.00,,---,0.00,0.00,VWS V14.01,2013-07-03 01:40:00,
2013-07-02 21:41:00,72.9,68.8,29.93,SSW,202,0.0,0.0,87,0.00,,---,0.00,0.00,VWS V14.01,2013-07-03 01:41:00,
2013-07-02 21:42:00,72.8,68.7,29.94,SSW,202,0.0,0.0,87,0.00,,---,0.00,0.00,VWS V14.01,2013-07-03 01:42:00,
2013-07-02 21:43:00,72.8,68.7,29.94,SSW,202,0.0,0.0,87,0.00,,---,0.00,0.00,VWS V14.01,2013-07-03 01:43:00,
2013-07-02 21:44:00,72.7,68.9,29.94,SSW,202,0.0,0.0,88,0.00,,---,0.00,0.00,VWS V14.01,2013-07-03 01:44:00,
2013-07-02 21:45:00,72.7,68.9,29.94,SSW,202,0.0,0.0,88,0.00,,---,0.00,0.00,VWS V14.01,2013-07-03 01:45:00,
2013-07-02 21:46:00,72.6,68.8,29.94,SSW,202,0.0,0.0,88,0.00,,---,0.00,0.00,VWS V14.01,2013-07-03 01:46:00,
2013-07-02 21:47:00,72.6,68.8,29.94,SSW,202,0.0,0.0,88,0.00,,---,0.00,0.00,VWS V14.01,2013-07-03 01:47:00,
2013-07-02 21:48:00,72.5,68.8,29.94,SSW,202,0.0,0.0,88,0.00,,---,0.00,0.00,VWS V14.01,2013-07-03 01:48:00,
2013-07-02 21:49:00,72.5,68.8,29.94,SSW,202,0.0,0.0,88,0.00,,---,0.00,0.00,VWS V14.01,2013-07-03 01:49:00,
2013-07-02 21:50:00,72.5,68.8,29.94,SSW,202,0.0,0.0,88,0.00,,---,0.00,0.00,VWS V14.01,2013-07-03 01:50:00,
2013-07-02 21:51:00,72.4,68.7,29.94,SSW,202,0.0,0.0,88,0.00,,---,0.00,0.00,VWS V14.01,2013-07-03 01:51:00,
2013-07-02 21:52:00,72.4,68.7,29.94,SSW,202,0.0,0.0,88,0.00,,---,0.00,0.00,VWS V14.01,2013-07-03 01:52:00,
2013-07-02 21:53:00,72.3,68.6,29.94,SSW,202,0.0,0.0,88,0.00,,---,0.00,0.00,VWS V14.01,2013-07-03 01:53:00,
2013-07-02 21:54:00,72.3,68.6,29.94,SSW,202,0.0,0.0,88,0.00,,---,0.00,0.00,VWS V14.01,2013-07-03 01:54:00,
2013-07-02 21:55:00,72.2,68.4,29.94,SSW,202,0.0,1.0,88,0.00,,---,0.00,0.00,VWS V14.01,2013-07-03 01:55:00,
2013-07-02 21:56:00,72.2,68.8,29.94,SSW,202,0.0,1.0,89,0.00,,---,0.00,0.00,VWS V14.01,2013-07-03 01:56:00,
2013-07-02 21:57:00,72.2,68.8,29.94,SSW,202,0.0,1.0,89,0.00,,---,0.00,0.00,VWS V14.01,2013-07-03 01:57:00,
2013-07-02 21:58:00,72.1,68.7,29.94,SSW,202,0.0,1.0,89,0.00,,---,0.00,0.00,VWS V14.01,2013-07-03 01:58:00,
2013-07-02 21:59:00,72.1,68.7,29.94,SSW,202,0.0,1.0,89,0.00,,---,0.00,0.00,VWS V14.01,2013-07-03 01:59:00,
2013-07-02 22:00:00,72.1,68.7,29.94,SSW,202,0.0,1.0,89,0.00,,---,0.00,0.00,VWS V14.01,2013-07-03 02:00:00,
2013-07-02 22:01:00,72.1,68.7,29.94,SSW,202,0.0,0.0,89,0.00,,---,0.00,0.00,VWS V14.01,2013-07-03 02:01:00,
2013-07-02 22:02:00,72.1,68.7,29.94,SSW,202,0.0,0.0,89,0.00,,---,0.00,0.00,VWS V14.01,2013-07-03 02:02:00,
2013-07-02 22:03:00,72.1,68.7,29.94,SSW,202,0.0,0.0,89,0.00,,---,0.00,0.00,VWS V14.01,2013-07-03 02:03:00,
2013-07-02 22:04:00,72.0,68.6,29.94,SSW,202,0.0,0.0,89,0.00,,---,0.00,0.00,VWS V14.01,2013-07-03 02:04:00,
2013-07-02 22:05:00,72.0,68.6,29.94,SSW,202,0.0,0.0,89,0.00,,---,0.00,0.00,VWS V14.01,2013-07-03 02:05:00,
2013-07-02 22:06:00,72.0,68.6,29.94,SSW,202,0.0,0.0,89,0.00,,---,0.00,0.00,VWS V14.01,2013-07-03 02:06:00,
2013-07-02 22:07:00,72.0,68.6,29.94,SSW,202,0.0,0.0,89,0.00,,---,0.00,0.00,VWS V14.01,2013-07-03 02:07:00,
2013-07-02 22:08:00,72.0,68.9,29.94,SSW,202,0.0,0.0,90,0.00,,---,0.00,0.00,VWS V14.01,2013-07-03 02:08:00,
2013-07-02 22:09:00,72.0,68.9,29.94,SSW,202,0.0,0.0,90,0.00,,---,0.00,0.00,VWS V14.01,2013-07-03 02:09:00,
2013-07-02 22:10:00,72.0,68.9,29.94,SSW,202,0.0,0.0,90,0.00,,---,0.00,0.00,VWS V14.01,2013-07-03 02:10:00,
2013-07-02 22:11:00,72.0,68.9,29.94,SSW,202,0.0,0.0,90,0.00,,---,0.00,0.00,VWS V14.01,2013-07-03 02:11:00,
2013-07-02 22:12:00,72.0,68.9,29.94,SSW,202,0.0,0.0,90,0.00,,---,0.00,0.00,VWS V14.01,2013-07-03 02:12:00,
2013-07-02 22:13:00,72.0,68.9,29.94,SSW,202,0.0,0.0,90,0.00,,---,0.00,0.00,VWS V14.01,2013-07-03 02:13:00,
2013-07-02 22:14:00,72.0,68.9,29.94,SSW,202,0.0,0.0,90,0.00,,---,0.00,0.00,VWS V14.01,2013-07-03 02:14:00,
2013-07-02 22:15:00,72.0,68.9,29.94,SSW,202,0.0,0.0,90,0.00,,---,0.00,0.00,VWS V14.01,2013-07-03 02:15:00,
2013-07-02 22:16:00,72.0,68.9,29.94,SSW,202,0.0,0.0,90,0.00,,---,0.00,0.00,VWS V14.01,2013-07-03 02:16:00,
2013-07-02 22:17:00,72.0,68.9,29.94,SSW,202,0.0,1.0,90,0.00,,---,0.00,0.00,VWS V14.01,2013-07-03 02:17:00,
2013-07-02 22:18:00,72.0,68.9,29.94,SSW,202,0.0,1.0,90,0.00,,---,0.00,0.00,VWS V14.01,2013-07-03 02:18:00,
2013-07-02 22:19:00,72.0,68.9,29.94,SSW,202,0.0,1.0,90,0.00,,---,0.00,0.00,VWS V14.01,2013-07-03 02:19:00,
2013-07-02 22:20:00,72.0,68.9,29.94,SSW,202,0.0,1.0,90,0.00,,---,0.00,0.00,VWS V14.01,2013-07-03 02:20:00,
2013-07-02 22:21:00,72.0,68.9,29.94,SSW,202,0.0,0.0,90,0.00,,---,0.00,0.00,VWS V14.01,2013-07-03 02:21:00,
2013-07-02 22:22:00,72.1,69.0,29.94,SSW,202,1.0,1.0,90,0.00,,---,0.00,0.00,VWS V14.01,2013-07-03 02:22:00,
2013-07-02 22:23:00,72.1,69.0,29.94,SSW,202,0.0,1.0,90,0.00,,---,0.00,0.00,VWS V14.01,2013-07-03 02:23:00,
2013-07-02 22:24:00,72.1,69.0,29.94,SSW,202,0.0,1.0,90,0.00,,---,0.00,0.00,VWS V14.01,2013-07-03 02:24:00,
2013-07-02 22:25:00,72.1,69.0,29.94,SSW,202,0.0,1.0,90,0.00,,---,0.00,0.00,VWS V14.01,2013-07-03 02:25:00,
2013-07-02 22:26:00,72.1,69.0,29.94,SSW,202,0.0,0.0,90,0.00,,---,0.00,0.00,VWS V14.01,2013-07-03 02:26:00,
2013-07-02 22:27:00,72.1,69.0,29.94,SSW,202,0.0,1.0,90,0.00,,---,0.00,0.00,VWS V14.01,2013-07-03 02:27:00,
2013-07-02 22:28:00,72.1,69.0,29.94,SSW,202,0.0,1.0,90,0.00,,---,0.00,0.00,VWS V14.01,2013-07-03 02:28:00,
2013-07-02 22:29:00,72.1,69.0,29.94,SSW,202,0.0,1.0,90,0.00,,---,0.00,0.00,VWS V14.01,2013-07-03 02:29:00,
2013-07-02 22:30:00,72.1,69.0,29.94,SSW,202,0.0,1.0,90,0.00,,---,0.00,0.00,VWS V14.01,2013-07-03 02:30:00,
2013-07-02 22:31:00,72.1,69.0,29.94,SSW,202,0.0,0.0,90,0.00,,---,0.00,0.00,VWS V14.01,2013-07-03 02:31:00,
2013-07-02 22:32:00,72.1,69.0,29.94,SSW,202,0.0,0.0,90,0.00,,---,0.00,0.00,VWS V14.01,2013-07-03 02:32:00,
2013-07-02 22:33:00,72.1,69.0,29.94,SSW,202,0.0,0.0,90,0.00,,---,0.00,0.00,VWS V14.01,2013-07-03 02:33:00,
2013-07-02 22:34:00,72.1,69.0,29.94,SSW,202,0.0,0.0,90,0.00,,---,0.00,0.00,VWS V14.01,2013-07-03 02:34:00,
2013-07-02 22:35:00,72.1,69.0,29.94,SSW,202,0.0,0.0,90,0.00,,---,0.00,0.00,VWS V14.01,2013-07-03 02:35:00,
2013-07-02 22:36:00,72.1,69.0,29.94,SSW,202,0.0,0.0,90,0.00,,---,0.00,0.00,VWS V14.01,2013-07-03 02:36:00,
2013-07-02 22:37:00,72.1,69.0,29.94,SSW,202,0.0,0.0,90,0.00,,---,0.00,0.00,VWS V14.01,2013-07-03 02:37:00,
2013-07-02 22:38:00,72.1,69.0,29.94,SSW,202,0.0,0.0,90,0.00,,---,0.00,0.00,VWS V14.01,2013-07-03 02:38:00,
2013-07-02 22:39:00,72.1,69.0,29.94,SSW,202,0.0,0.0,90,0.00,,---,0.00,0.00,VWS V14.01,2013-07-03 02:39:00,
2013-07-02 22:40:00,72.1,69.0,29.94,SSW,202,0.0,0.0,90,0.00,,---,0.00,0.00,VWS V14.01,2013-07-03 02:40:00,
2013-07-02 22:41:00,72.1,69.0,29.94,SSW,202,0.0,0.0,90,0.00,,---,0.00,0.00,VWS V14.01,2013-07-03 02:41:00,
2013-07-02 22:42:00,72.1,69.0,29.94,SSW,202,0.0,0.0,90,0.00,,---,0.00,0.00,VWS V14.01,2013-07-03 02:42:00,
2013-07-02 22:43:00,72.1,69.0,29.94,SSW,202,0.0,0.0,90,0.00,,---,0.00,0.00,VWS V14.01,2013-07-03 02:43:00,
2013-07-02 22:44:00,72.1,69.0,29.94,SSW,202,0.0,0.0,90,0.00,,---,0.00,0.00,VWS V14.01,2013-07-03 02:44:00,
2013-07-02 22:45:00,72.1,69.0,29.94,SSW,202,0.0,0.0,90,0.00,,---,0.00,0.00,VWS V14.01,2013-07-03 02:45:00,
2013-07-02 22:46:00,72.1,69.0,29.94,SSW,202,0.0,0.0,90,0.00,,---,0.00,0.00,VWS V14.01,2013-07-03 02:46:00,
2013-07-02 22:47:00,72.2,69.1,29.94,SSW,202,0.0,0.0,90,0.00,,---,0.00,0.00,VWS V14.01,2013-07-03 02:47:00,
2013-07-02 22:48:00,72.2,69.1,29.94,SSW,202,0.0,0.0,90,0.00,,---,0.00,0.00,VWS V14.01,2013-07-03 02:48:00,
2013-07-02 22:49:00,72.1,69.0,29.94,SSW,202,0.0,0.0,90,0.00,,---,0.00,0.00,VWS V14.01,2013-07-03 02:49:00,
2013-07-02 22:50:00,72.1,69.0,29.94,SSW,202,0.0,0.0,90,0.00,,---,0.00,0.00,VWS V14.01,2013-07-03 02:50:00,
2013-07-02 22:51:00,72.1,69.0,29.94,SSW,202,0.0,0.0,90,0.00,,---,0.00,0.00,VWS V14.01,2013-07-03 02:51:00,
2013-07-02 22:52:00,72.1,69.0,29.94,SSW,202,0.0,0.0,90,0.00,,---,0.00,0.00,VWS V14.01,2013-07-03 02:52:00,
2013-07-02 22:53:00,72.2,69.1,29.94,SSW,202,0.0,0.0,90,0.00,,---,0.00,0.00,VWS V14.01,2013-07-03 02:53:00,
2013-07-02 22:54:00,72.2,69.1,29.94,SSW,202,0.0,0.0,90,0.00,,---,0.00,0.00,VWS V14.01,2013-07-03 02:54:00,
2013-07-02 22:55:00,72.1,69.0,29.94,SSW,202,0.0,0.0,90,0.00,,---,0.00,0.00,VWS V14.01,2013-07-03 02:55:00,
2013-07-02 22:56:00,72.1,69.0,29.94,SSW,202,0.0,0.0,90,0.00,,---,0.00,0.00,VWS V14.01,2013-07-03 02:56:00,
2013-07-02 22:57:00,72.1,69.0,29.94,SSW,202,0.0,0.0,90,0.00,,---,0.00,0.00,VWS V14.01,2013-07-03 02:57:00,
2013-07-02 22:58:00,72.1,69.0,29.94,SSW,202,0.0,0.0,90,0.00,,---,0.00,0.00,VWS V14.01,2013-07-03 02:58:00,
2013-07-02 22:59:00,72.0,68.9,29.94,SSW,202,0.0,0.0,90,0.00,,---,0.00,0.00,VWS V14.01,2013-07-03 02:59:00,
2013-07-02 23:00:00,72.0,68.9,29.94,SSW,202,0.0,0.0,90,0.00,,---,0.00,0.00,VWS V14.01,2013-07-03 03:00:00,
2013-07-02 23:01:00,72.0,68.9,29.94,SSW,202,0.0,0.0,90,0.00,,---,0.00,0.00,VWS V14.01,2013-07-03 03:01:00,
2013-07-02 23:02:00,72.0,68.9,29.94,SSW,202,0.0,0.0,90,0.00,,---,0.00,0.00,VWS V14.01,2013-07-03 03:02:00,
2013-07-02 23:03:00,72.0,68.9,29.94,SSW,202,0.0,0.0,90,0.00,,---,0.00,0.00,VWS V14.01,2013-07-03 03:03:00,
2013-07-02 23:04:00,71.9,68.8,29.94,SSW,202,0.0,0.0,90,0.00,,---,0.00,0.00,VWS V14.01,2013-07-03 03:04:00,
2013-07-02 23:05:00,71.9,68.8,29.94,SSW,202,0.0,0.0,90,0.00,,---,0.00,0.00,VWS V14.01,2013-07-03 03:05:00,
2013-07-02 23:06:00,71.9,68.8,29.94,SSW,202,0.0,0.0,90,0.00,,---,0.00,0.00,VWS V14.01,2013-07-03 03:06:00,
2013-07-02 23:07:00,71.9,68.8,29.94,SSW,202,0.0,0.0,90,0.00,,---,0.00,0.00,VWS V14.01,2013-07-03 03:07:00,
2013-07-02 23:08:00,71.8,68.7,29.94,SSW,202,0.0,0.0,90,0.00,,---,0.00,0.00,VWS V14.01,2013-07-03 03:08:00,
2013-07-02 23:09:00,71.8,68.4,29.94,SSW,202,0.0,0.0,89,0.00,,---,0.00,0.00,VWS V14.01,2013-07-03 03:09:00,
2013-07-02 23:10:00,71.8,68.4,29.94,SSW,202,0.0,0.0,89,0.00,,---,0.00,0.00,VWS V14.01,2013-07-03 03:10:00,
2013-07-02 23:11:00,71.7,68.3,29.94,SSW,202,0.0,0.0,89,0.00,,---,0.00,0.00,VWS V14.01,2013-07-03 03:11:00,
2013-07-02 23:12:00,71.7,68.3,29.94,SSW,202,0.0,0.0,89,0.00,,---,0.00,0.00,VWS V14.01,2013-07-03 03:12:00,
2013-07-02 23:13:00,71.7,68.3,29.94,SSW,202,0.0,0.0,89,0.00,,---,0.00,0.00,VWS V14.01,2013-07-03 03:13:00,
2013-07-02 23:14:00,71.6,68.2,29.94,SSW,202,0.0,0.0,89,0.00,,---,0.00,0.00,VWS V14.01,2013-07-03 03:14:00,
2013-07-02 23:15:00,71.6,68.2,29.94,SSW,202,0.0,0.0,89,0.00,,---,0.00,0.00,VWS V14.01,2013-07-03 03:15:00,
2013-07-02 23:16:00,71.6,68.2,29.94,SSW,202,0.0,0.0,89,0.00,,---,0.00,0.00,VWS V14.01,2013-07-03 03:16:00,
2013-07-02 23:17:00,71.5,68.1,29.94,SSW,202,0.0,0.0,89,0.00,,---,0.00,0.00,VWS V14.01,2013-07-03 03:17:00,
2013-07-02 23:18:00,71.5,68.1,29.94,SSW,202,0.0,0.0,89,0.00,,---,0.00,0.00,VWS V14.01,2013-07-03 03:18:00,
2013-07-02 23:19:00,71.5,68.1,29.94,SSW,202,0.0,0.0,89,0.00,,---,0.00,0.00,VWS V14.01,2013-07-03 03:19:00,
2013-07-02 23:20:00,71.5,68.4,29.94,SSW,202,0.0,0.0,90,0.00,,---,0.00,0.00,VWS V14.01,2013-07-03 03:20:00,
2013-07-02 23:21:00,71.4,68.3,29.94,SSW,202,0.0,0.0,90,0.00,,---,0.00,0.00,VWS V14.01,2013-07-03 03:21:00,
2013-07-02 23:22:00,71.4,68.3,29.94,SSW,202,0.0,0.0,90,0.00,,---,0.00,0.00,VWS V14.01,2013-07-03 03:22:00,
2013-07-02 23:23:00,71.4,68.3,29.94,SSW,202,0.0,0.0,90,0.00,,---,0.00,0.00,VWS V14.01,2013-07-03 03:23:00,
2013-07-02 23:24:00,71.4,68.3,29.94,SSW,202,0.0,0.0,90,0.00,,---,0.00,0.00,VWS V14.01,2013-07-03 03:24:00,
2013-07-02 23:25:00,71.4,68.3,29.94,SSW,202,0.0,0.0,90,0.00,,---,0.00,0.00,VWS V14.01,2013-07-03 03:25:00,
2013-07-02 23:26:00,71.4,68.6,29.94,SSW,202,0.0,0.0,91,0.00,,---,0.00,0.00,VWS V14.01,2013-07-03 03:26:00,
2013-07-02 23:27:00,71.3,68.5,29.94,SSW,202,0.0,0.0,91,0.00,,---,0.00,0.00,VWS V14.01,2013-07-03 03:27:00,
2013-07-02 23:28:00,71.3,68.5,29.94,SSW,202,0.0,0.0,91,0.00,,---,0.00,0.00,VWS V14.01,2013-07-03 03:28:00,
2013-07-02 23:29:00,71.3,68.5,29.94,SSW,202,0.0,0.0,91,0.00,,---,0.00,0.00,VWS V14.01,2013-07-03 03:29:00,
2013-07-02 23:30:00,71.3,68.5,29.93,SSW,202,0.0,0.0,91,0.00,,---,0.00,0.00,VWS V14.01,2013-07-03 03:30:00,
2013-07-02 23:31:00,71.3,68.5,29.94,SSW,202,0.0,0.0,91,0.00,,---,0.00,0.00,VWS V14.01,2013-07-03 03:31:00,
2013-07-02 23:32:00,71.2,68.4,29.94,SSW,202,0.0,0.0,91,0.00,,---,0.00,0.00,VWS V14.01,2013-07-03 03:32:00,
2013-07-02 23:33:00,71.2,68.4,29.93,SSW,202,0.0,0.0,91,0.00,,---,0.00,0.00,VWS V14.01,2013-07-03 03:33:00,
2013-07-02 23:34:00,71.2,68.4,29.93,SSW,202,0.0,1.0,91,0.00,,---,0.00,0.00,VWS V14.01,2013-07-03 03:34:00,
2013-07-02 23:35:00,71.2,68.4,29.93,SSW,202,0.0,1.0,91,0.00,,---,0.00,0.00,VWS V14.01,2013-07-03 03:35:00,
2013-07-02 23:36:00,71.1,68.3,29.93,SSW,202,0.0,1.0,91,0.00,,---,0.00,0.00,VWS V14.01,2013-07-03 03:36:00,
2013-07-02 23:37:00,71.1,68.3,29.94,SSW,202,0.0,1.0,91,0.00,,---,0.00,0.00,VWS V14.01,2013-07-03 03:37:00,
2013-07-02 23:38:00,71.0,68.2,29.94,SSW,202,0.0,1.0,91,0.00,,---,0.00,0.00,VWS V14.01,2013-07-03 03:38:00,
2013-07-02 23:39:00,71.0,68.2,29.94,SSW,202,0.0,1.0,91,0.00,,---,0.00,0.00,VWS V14.01,2013-07-03 03:39:00,
2013-07-02 23:40:00,71.0,68.6,29.94,SSW,202,0.0,1.0,92,0.00,,---,0.00,0.00,VWS V14.01,2013-07-03 03:40:00,
2013-07-02 23:41:00,70.9,68.5,29.94,SSW,202,0.0,0.0,92,0.00,,---,0.00,0.00,VWS V14.01,2013-07-03 03:41:00,
2013-07-02 23:42:00,70.9,68.5,29.94,SSW,202,0.0,1.0,92,0.00,,---,0.00,0.00,VWS V14.01,2013-07-03 03:42:00,
2013-07-02 23:43:00,70.9,68.5,29.94,SSW,202,0.0,1.0,92,0.00,,---,0.00,0.00,VWS V14.01,2013-07-03 03:43:00,
2013-07-02 23:44:00,70.9,68.5,29.94,SSW,202,0.0,1.0,92,0.00,,---,0.00,0.00,VWS V14.01,2013-07-03 03:44:00,
2013-07-02 23:45:00,70.8,68.4,29.93,SSW,202,0.0,1.0,92,0.00,,---,0.00,0.00,VWS V14.01,2013-07-03 03:45:00,
2013-07-02 23:46:00,70.8,68.4,29.94,SSW,202,0.0,0.0,92,0.00,,---,0.00,0.00,VWS V14.01,2013-07-03 03:46:00,
2013-07-02 23:47:00,70.8,68.4,29.93,SSW,202,0.0,0.0,92,0.00,,---,0.00,0.00,VWS V14.01,2013-07-03 03:47:00,
2013-07-02 23:48:00,70.8,68.4,29.93,SSW,202,0.0,0.0,92,0.00,,---,0.00,0.00,VWS V14.01,2013-07-03 03:48:00,
2013-07-02 23:49:00,70.8,68.4,29.93,SSW,202,0.0,0.0,92,0.00,,---,0.00,0.00,VWS V14.01,2013-07-03 03:49:00,
2013-07-02 23:50:00,70.8,68.4,29.93,SSW,202,0.0,0.0,92,0.00,,---,0.00,0.00,VWS V14.01,2013-07-03 03:50:00,
2013-07-02 23:51:00,70.7,68.3,29.93,SSW,202,0.0,0.0,92,0.00,,---,0.00,0.00,VWS V14.01,2013-07-03 03:51:00,
2013-07-02 23:52:00,70.7,68.3,29.93,SSW,202,0.0,0.0,92,0.00,,---,0.00,0.00,VWS V14.01,2013-07-03 03:52:00,
2013-07-02 23:53:00,70.7,68.3,29.93,SSW,202,0.0,0.0,92,0.00,,---,0.00,0.00,VWS V14.01,2013-07-03 03:53:00,
2013-07-02 23:54:00,70.7,68.3,29.93,SSW,202,0.0,0.0,92,0.00,,---,0.00,0.00,VWS V14.01,2013-07-03 03:54:00,
2013-07-02 23:55:00,70.6,68.2,29.93,SSW,202,0.0,0.0,92,0.00,,---,0.00,0.00,VWS V14.01,2013-07-03 03:55:00,
2013-07-02 23:56:00,70.6,68.2,29.93,SSW,202,0.0,0.0,92,0.00,,---,0.00,0.00,VWS V14.01,2013-07-03 03:56:00,
2013-07-02 23:57:00,70.6,68.2,29.93,SSW,202,0.0,0.0,92,0.00,,---,0.00,0.00,VWS V14.01,2013-07-03 03:57:00,
2013-07-02 23:58:00,70.6,68.2,29.93,SSW,202,0.0,0.0,92,0.00,,---,0.00,0.00,VWS V14.01,2013-07-03 03:58:00,
2013-07-02 23:59:00,70.6,68.2,29.93,SSW,202,0.0,0.0,92,0.00,,---,0.00,0.00,VWS V14.01,2013-07-03 03:59:00,